<?xml version="1.0" encoding="UTF-8" standalone="no" ?>
<gpx xmlns="http://www.topografix.com/GPX/1/1" xmlns:xsi="http://www.w3.org/2001/XMLSchema-instance" xsi:schemaLocation="http://www.topografix.com/GPX/1/1 http://www.topografix.com/GPX/1/1/gpx.xsd" version="1.1" creator="VisuGPX - https://www.visugpx.com">
  <metadata>
    <name>Ihringen (Kayserstuhl)</name>
    <desc><![CDATA[Départ au Lilienhof en allemagne (à partir de Colmar prendre la D415, traverser les ponts du Rhin, au premier rond-point après les ponts du Rhin, tourner à gauche vers Vieux-Brisach, à l'intersection suivante prendre à droite vers Ihringen, au centre d'Ihringen tourner à gauche sur la Wasenweillerstrasse  vers Bötzingen, à 1,7 km un pannonceau Lilienhof indique la petite route à gauche à prendre. Il y a assez de place de parking au restaurant Lilie (et autour). Continuer à pied en contournant le restaurant par la gauche, suivre le sentier  qui passe par un arboretum. Il faut rejoindre ensuite le Kayserstuhlpfad (l'axe pédestre principal, losange jaune) en montant. Pour cela suivre la direction Neunlindenturm. On passe devant la tour (on peut y monter, joli point de vue) et on suit le chemin. Le plus simple étant ensuite de suivre la direction Gästehaus Lenzenberg. On rejoint le restaurant puis on prend la direction Lilienhof pour rejoindre le point de départ.]]></desc>
  </metadata>
  <trk>
    <name><![CDATA[Randonnée du 02/08/2017 à 10:29]]></name>
    <trkseg>
      <trkpt lat="48.06772" lon="7.67529">
        <ele>287</ele>
        <time>2017-08-02T10:57:55+02:00</time>
      </trkpt>
      <trkpt lat="48.06779" lon="7.67524">
        <ele>288</ele>
        <time>2017-08-02T10:58:00+02:00</time>
      </trkpt>
      <trkpt lat="48.06786" lon="7.67515">
        <ele>288</ele>
        <time>2017-08-02T10:58:05+02:00</time>
      </trkpt>
      <trkpt lat="48.06795" lon="7.67532">
        <ele>289</ele>
        <time>2017-08-02T10:58:10+02:00</time>
      </trkpt>
      <trkpt lat="48.06814" lon="7.67522">
        <ele>290</ele>
        <time>2017-08-02T10:58:15+02:00</time>
      </trkpt>
      <trkpt lat="48.06827" lon="7.67527">
        <ele>291</ele>
        <time>2017-08-02T10:58:20+02:00</time>
      </trkpt>
      <trkpt lat="48.06844" lon="7.67527">
        <ele>293</ele>
        <time>2017-08-02T10:58:25+02:00</time>
      </trkpt>
      <trkpt lat="48.06854" lon="7.67535">
        <ele>293</ele>
        <time>2017-08-02T10:58:30+02:00</time>
      </trkpt>
      <trkpt lat="48.06863" lon="7.67545">
        <ele>294</ele>
        <time>2017-08-02T10:58:35+02:00</time>
      </trkpt>
      <trkpt lat="48.06891" lon="7.67559">
        <ele>295</ele>
        <time>2017-08-02T10:58:40+02:00</time>
      </trkpt>
      <trkpt lat="48.06919" lon="7.67587">
        <ele>297</ele>
        <time>2017-08-02T10:58:45+02:00</time>
      </trkpt>
      <trkpt lat="48.06937" lon="7.67594">
        <ele>299</ele>
        <time>2017-08-02T10:58:50+02:00</time>
      </trkpt>
      <trkpt lat="48.06975" lon="7.67615">
        <ele>303</ele>
        <time>2017-08-02T10:58:55+02:00</time>
      </trkpt>
      <trkpt lat="48.0703" lon="7.67649">
        <ele>309</ele>
        <time>2017-08-02T10:59:00+02:00</time>
      </trkpt>
      <trkpt lat="48.07038" lon="7.67664">
        <ele>310</ele>
        <time>2017-08-02T10:59:05+02:00</time>
      </trkpt>
      <trkpt lat="48.07063" lon="7.67676">
        <ele>314</ele>
        <time>2017-08-02T10:59:10+02:00</time>
      </trkpt>
      <trkpt lat="48.07058" lon="7.67693">
        <ele>316</ele>
        <time>2017-08-02T10:59:15+02:00</time>
      </trkpt>
      <trkpt lat="48.07028" lon="7.67688">
        <ele>312</ele>
        <time>2017-08-02T10:59:20+02:00</time>
      </trkpt>
      <trkpt lat="48.07008" lon="7.677">
        <ele>311</ele>
        <time>2017-08-02T10:59:25+02:00</time>
      </trkpt>
      <trkpt lat="48.0697" lon="7.6772">
        <ele>313</ele>
        <time>2017-08-02T10:59:30+02:00</time>
      </trkpt>
      <trkpt lat="48.06974" lon="7.6774">
        <ele>315</ele>
        <time>2017-08-02T10:59:35+02:00</time>
      </trkpt>
      <trkpt lat="48.06993" lon="7.67757">
        <ele>316</ele>
        <time>2017-08-02T10:59:40+02:00</time>
      </trkpt>
      <trkpt lat="48.07111" lon="7.67791">
        <ele>326</ele>
        <time>2017-08-02T10:59:45+02:00</time>
      </trkpt>
      <trkpt lat="48.0716" lon="7.67737">
        <ele>334</ele>
        <time>2017-08-02T10:59:50+02:00</time>
      </trkpt>
      <trkpt lat="48.0727" lon="7.67745">
        <ele>342</ele>
        <time>2017-08-02T10:59:55+02:00</time>
      </trkpt>
      <trkpt lat="48.0727" lon="7.67745">
        <ele>342</ele>
        <time>2017-08-02T11:00:00+02:00</time>
      </trkpt>
      <trkpt lat="48.07279" lon="7.67747">
        <ele>343</ele>
        <time>2017-08-02T11:00:05+02:00</time>
      </trkpt>
      <trkpt lat="48.0729" lon="7.67746">
        <ele>344</ele>
        <time>2017-08-02T11:00:10+02:00</time>
      </trkpt>
      <trkpt lat="48.07301" lon="7.67744">
        <ele>345</ele>
        <time>2017-08-02T11:00:15+02:00</time>
      </trkpt>
      <trkpt lat="48.0731" lon="7.67743">
        <ele>346</ele>
        <time>2017-08-02T11:00:20+02:00</time>
      </trkpt>
      <trkpt lat="48.0732" lon="7.6774">
        <ele>347</ele>
        <time>2017-08-02T11:00:25+02:00</time>
      </trkpt>
      <trkpt lat="48.0733" lon="7.67738">
        <ele>348</ele>
        <time>2017-08-02T11:00:30+02:00</time>
      </trkpt>
      <trkpt lat="48.07338" lon="7.67737">
        <ele>348</ele>
        <time>2017-08-02T11:00:35+02:00</time>
      </trkpt>
      <trkpt lat="48.07348" lon="7.67736">
        <ele>349</ele>
        <time>2017-08-02T11:00:40+02:00</time>
      </trkpt>
      <trkpt lat="48.07357" lon="7.67733">
        <ele>349</ele>
        <time>2017-08-02T11:00:45+02:00</time>
      </trkpt>
      <trkpt lat="48.07367" lon="7.6773">
        <ele>349</ele>
        <time>2017-08-02T11:00:50+02:00</time>
      </trkpt>
      <trkpt lat="48.07376" lon="7.67729">
        <ele>349</ele>
        <time>2017-08-02T11:00:55+02:00</time>
      </trkpt>
      <trkpt lat="48.07385" lon="7.6773">
        <ele>350</ele>
        <time>2017-08-02T11:01:00+02:00</time>
      </trkpt>
      <trkpt lat="48.07396" lon="7.67731">
        <ele>350</ele>
        <time>2017-08-02T11:01:05+02:00</time>
      </trkpt>
      <trkpt lat="48.07405" lon="7.67734">
        <ele>351</ele>
        <time>2017-08-02T11:01:10+02:00</time>
      </trkpt>
      <trkpt lat="48.07409" lon="7.67722">
        <ele>350</ele>
        <time>2017-08-02T11:01:15+02:00</time>
      </trkpt>
      <trkpt lat="48.07419" lon="7.67719">
        <ele>351</ele>
        <time>2017-08-02T11:01:20+02:00</time>
      </trkpt>
      <trkpt lat="48.07428" lon="7.67717">
        <ele>351</ele>
        <time>2017-08-02T11:01:25+02:00</time>
      </trkpt>
      <trkpt lat="48.07438" lon="7.67715">
        <ele>352</ele>
        <time>2017-08-02T11:01:30+02:00</time>
      </trkpt>
      <trkpt lat="48.07446" lon="7.6771">
        <ele>353</ele>
        <time>2017-08-02T11:01:35+02:00</time>
      </trkpt>
      <trkpt lat="48.07455" lon="7.67706">
        <ele>353</ele>
        <time>2017-08-02T11:01:40+02:00</time>
      </trkpt>
      <trkpt lat="48.07465" lon="7.67704">
        <ele>354</ele>
        <time>2017-08-02T11:01:45+02:00</time>
      </trkpt>
      <trkpt lat="48.07473" lon="7.67698">
        <ele>355</ele>
        <time>2017-08-02T11:01:50+02:00</time>
      </trkpt>
      <trkpt lat="48.07482" lon="7.6769">
        <ele>356</ele>
        <time>2017-08-02T11:01:55+02:00</time>
      </trkpt>
      <trkpt lat="48.07492" lon="7.67688">
        <ele>357</ele>
        <time>2017-08-02T11:02:00+02:00</time>
      </trkpt>
      <trkpt lat="48.07501" lon="7.67691">
        <ele>358</ele>
        <time>2017-08-02T11:02:05+02:00</time>
      </trkpt>
      <trkpt lat="48.07509" lon="7.67699">
        <ele>360</ele>
        <time>2017-08-02T11:02:10+02:00</time>
      </trkpt>
      <trkpt lat="48.07518" lon="7.67699">
        <ele>361</ele>
        <time>2017-08-02T11:02:15+02:00</time>
      </trkpt>
      <trkpt lat="48.07527" lon="7.67702">
        <ele>362</ele>
        <time>2017-08-02T11:02:20+02:00</time>
      </trkpt>
      <trkpt lat="48.07536" lon="7.67708">
        <ele>363</ele>
        <time>2017-08-02T11:02:25+02:00</time>
      </trkpt>
      <trkpt lat="48.07544" lon="7.67721">
        <ele>364</ele>
        <time>2017-08-02T11:02:30+02:00</time>
      </trkpt>
      <trkpt lat="48.07544" lon="7.67736">
        <ele>362</ele>
        <time>2017-08-02T11:02:35+02:00</time>
      </trkpt>
      <trkpt lat="48.07544" lon="7.6775">
        <ele>361</ele>
        <time>2017-08-02T11:02:40+02:00</time>
      </trkpt>
      <trkpt lat="48.0754" lon="7.67762">
        <ele>361</ele>
        <time>2017-08-02T11:02:45+02:00</time>
      </trkpt>
      <trkpt lat="48.07537" lon="7.67775">
        <ele>360</ele>
        <time>2017-08-02T11:02:50+02:00</time>
      </trkpt>
      <trkpt lat="48.07535" lon="7.67789">
        <ele>360</ele>
        <time>2017-08-02T11:02:55+02:00</time>
      </trkpt>
      <trkpt lat="48.07537" lon="7.67805">
        <ele>360</ele>
        <time>2017-08-02T11:03:00+02:00</time>
      </trkpt>
      <trkpt lat="48.07538" lon="7.6782">
        <ele>361</ele>
        <time>2017-08-02T11:03:05+02:00</time>
      </trkpt>
      <trkpt lat="48.07538" lon="7.67834">
        <ele>361</ele>
        <time>2017-08-02T11:03:10+02:00</time>
      </trkpt>
      <trkpt lat="48.07537" lon="7.67848">
        <ele>360</ele>
        <time>2017-08-02T11:03:15+02:00</time>
      </trkpt>
      <trkpt lat="48.07533" lon="7.67862">
        <ele>359</ele>
        <time>2017-08-02T11:03:20+02:00</time>
      </trkpt>
      <trkpt lat="48.07534" lon="7.67876">
        <ele>359</ele>
        <time>2017-08-02T11:03:25+02:00</time>
      </trkpt>
      <trkpt lat="48.07537" lon="7.67891">
        <ele>359</ele>
        <time>2017-08-02T11:03:30+02:00</time>
      </trkpt>
      <trkpt lat="48.07544" lon="7.67901">
        <ele>360</ele>
        <time>2017-08-02T11:03:35+02:00</time>
      </trkpt>
      <trkpt lat="48.07554" lon="7.67906">
        <ele>360</ele>
        <time>2017-08-02T11:03:40+02:00</time>
      </trkpt>
      <trkpt lat="48.07562" lon="7.67914">
        <ele>361</ele>
        <time>2017-08-02T11:03:45+02:00</time>
      </trkpt>
      <trkpt lat="48.0757" lon="7.67922">
        <ele>361</ele>
        <time>2017-08-02T11:03:50+02:00</time>
      </trkpt>
      <trkpt lat="48.07578" lon="7.67931">
        <ele>362</ele>
        <time>2017-08-02T11:03:55+02:00</time>
      </trkpt>
      <trkpt lat="48.07585" lon="7.67942">
        <ele>362</ele>
        <time>2017-08-02T11:04:00+02:00</time>
      </trkpt>
      <trkpt lat="48.07589" lon="7.67955">
        <ele>362</ele>
        <time>2017-08-02T11:04:05+02:00</time>
      </trkpt>
      <trkpt lat="48.07593" lon="7.67967">
        <ele>361</ele>
        <time>2017-08-02T11:04:10+02:00</time>
      </trkpt>
      <trkpt lat="48.07594" lon="7.67982">
        <ele>361</ele>
        <time>2017-08-02T11:04:15+02:00</time>
      </trkpt>
      <trkpt lat="48.07591" lon="7.67995">
        <ele>360</ele>
        <time>2017-08-02T11:04:20+02:00</time>
      </trkpt>
      <trkpt lat="48.07592" lon="7.68008">
        <ele>359</ele>
        <time>2017-08-02T11:04:25+02:00</time>
      </trkpt>
      <trkpt lat="48.07596" lon="7.68021">
        <ele>358</ele>
        <time>2017-08-02T11:04:30+02:00</time>
      </trkpt>
      <trkpt lat="48.07603" lon="7.68031">
        <ele>357</ele>
        <time>2017-08-02T11:04:35+02:00</time>
      </trkpt>
      <trkpt lat="48.07612" lon="7.68034">
        <ele>357</ele>
        <time>2017-08-02T11:04:40+02:00</time>
      </trkpt>
      <trkpt lat="48.07622" lon="7.6803">
        <ele>358</ele>
        <time>2017-08-02T11:04:45+02:00</time>
      </trkpt>
      <trkpt lat="48.0763" lon="7.68024">
        <ele>359</ele>
        <time>2017-08-02T11:04:50+02:00</time>
      </trkpt>
      <trkpt lat="48.07637" lon="7.68014">
        <ele>361</ele>
        <time>2017-08-02T11:04:55+02:00</time>
      </trkpt>
      <trkpt lat="48.07645" lon="7.68004">
        <ele>362</ele>
        <time>2017-08-02T11:05:00+02:00</time>
      </trkpt>
      <trkpt lat="48.07652" lon="7.67995">
        <ele>364</ele>
        <time>2017-08-02T11:05:05+02:00</time>
      </trkpt>
      <trkpt lat="48.07659" lon="7.67986">
        <ele>365</ele>
        <time>2017-08-02T11:05:10+02:00</time>
      </trkpt>
      <trkpt lat="48.07667" lon="7.67979">
        <ele>367</ele>
        <time>2017-08-02T11:05:15+02:00</time>
      </trkpt>
      <trkpt lat="48.07674" lon="7.67968">
        <ele>369</ele>
        <time>2017-08-02T11:05:20+02:00</time>
      </trkpt>
      <trkpt lat="48.07683" lon="7.6796">
        <ele>371</ele>
        <time>2017-08-02T11:05:25+02:00</time>
      </trkpt>
      <trkpt lat="48.07692" lon="7.67954">
        <ele>372</ele>
        <time>2017-08-02T11:05:30+02:00</time>
      </trkpt>
      <trkpt lat="48.077" lon="7.67946">
        <ele>374</ele>
        <time>2017-08-02T11:05:35+02:00</time>
      </trkpt>
      <trkpt lat="48.07709" lon="7.67946">
        <ele>375</ele>
        <time>2017-08-02T11:05:40+02:00</time>
      </trkpt>
      <trkpt lat="48.07719" lon="7.67944">
        <ele>376</ele>
        <time>2017-08-02T11:05:45+02:00</time>
      </trkpt>
      <trkpt lat="48.07732" lon="7.67943">
        <ele>377</ele>
        <time>2017-08-02T11:05:50+02:00</time>
      </trkpt>
      <trkpt lat="48.07741" lon="7.67944">
        <ele>378</ele>
        <time>2017-08-02T11:05:55+02:00</time>
      </trkpt>
      <trkpt lat="48.0775" lon="7.67948">
        <ele>378</ele>
        <time>2017-08-02T11:06:00+02:00</time>
      </trkpt>
      <trkpt lat="48.07761" lon="7.67952">
        <ele>378</ele>
        <time>2017-08-02T11:06:05+02:00</time>
      </trkpt>
      <trkpt lat="48.0777" lon="7.67952">
        <ele>380</ele>
        <time>2017-08-02T11:06:10+02:00</time>
      </trkpt>
      <trkpt lat="48.07781" lon="7.67951">
        <ele>381</ele>
        <time>2017-08-02T11:06:15+02:00</time>
      </trkpt>
      <trkpt lat="48.07791" lon="7.6795">
        <ele>383</ele>
        <time>2017-08-02T11:06:20+02:00</time>
      </trkpt>
      <trkpt lat="48.07801" lon="7.6795">
        <ele>384</ele>
        <time>2017-08-02T11:06:25+02:00</time>
      </trkpt>
      <trkpt lat="48.07811" lon="7.67954">
        <ele>384</ele>
        <time>2017-08-02T11:06:30+02:00</time>
      </trkpt>
      <trkpt lat="48.07819" lon="7.6796">
        <ele>385</ele>
        <time>2017-08-02T11:06:35+02:00</time>
      </trkpt>
      <trkpt lat="48.07828" lon="7.67965">
        <ele>385</ele>
        <time>2017-08-02T11:06:40+02:00</time>
      </trkpt>
      <trkpt lat="48.07835" lon="7.67973">
        <ele>385</ele>
        <time>2017-08-02T11:06:45+02:00</time>
      </trkpt>
      <trkpt lat="48.0784" lon="7.67984">
        <ele>384</ele>
        <time>2017-08-02T11:06:50+02:00</time>
      </trkpt>
      <trkpt lat="48.07844" lon="7.67998">
        <ele>383</ele>
        <time>2017-08-02T11:06:55+02:00</time>
      </trkpt>
      <trkpt lat="48.07845" lon="7.68014">
        <ele>382</ele>
        <time>2017-08-02T11:07:00+02:00</time>
      </trkpt>
      <trkpt lat="48.07846" lon="7.68027">
        <ele>382</ele>
        <time>2017-08-02T11:07:05+02:00</time>
      </trkpt>
      <trkpt lat="48.07841" lon="7.68043">
        <ele>381</ele>
        <time>2017-08-02T11:07:10+02:00</time>
      </trkpt>
      <trkpt lat="48.07834" lon="7.68054">
        <ele>379</ele>
        <time>2017-08-02T11:07:15+02:00</time>
      </trkpt>
      <trkpt lat="48.07833" lon="7.68072">
        <ele>378</ele>
        <time>2017-08-02T11:07:20+02:00</time>
      </trkpt>
      <trkpt lat="48.07827" lon="7.68088">
        <ele>376</ele>
        <time>2017-08-02T11:07:25+02:00</time>
      </trkpt>
      <trkpt lat="48.07825" lon="7.68101">
        <ele>375</ele>
        <time>2017-08-02T11:07:30+02:00</time>
      </trkpt>
      <trkpt lat="48.07826" lon="7.68115">
        <ele>374</ele>
        <time>2017-08-02T11:07:35+02:00</time>
      </trkpt>
      <trkpt lat="48.07833" lon="7.68126">
        <ele>374</ele>
        <time>2017-08-02T11:07:40+02:00</time>
      </trkpt>
      <trkpt lat="48.07843" lon="7.68132">
        <ele>375</ele>
        <time>2017-08-02T11:07:45+02:00</time>
      </trkpt>
      <trkpt lat="48.07853" lon="7.68137">
        <ele>376</ele>
        <time>2017-08-02T11:07:50+02:00</time>
      </trkpt>
      <trkpt lat="48.07863" lon="7.68141">
        <ele>377</ele>
        <time>2017-08-02T11:07:55+02:00</time>
      </trkpt>
      <trkpt lat="48.07871" lon="7.68145">
        <ele>378</ele>
        <time>2017-08-02T11:08:00+02:00</time>
      </trkpt>
      <trkpt lat="48.07882" lon="7.68144">
        <ele>380</ele>
        <time>2017-08-02T11:08:05+02:00</time>
      </trkpt>
      <trkpt lat="48.07891" lon="7.68145">
        <ele>381</ele>
        <time>2017-08-02T11:08:10+02:00</time>
      </trkpt>
      <trkpt lat="48.07901" lon="7.68146">
        <ele>382</ele>
        <time>2017-08-02T11:08:15+02:00</time>
      </trkpt>
      <trkpt lat="48.0791" lon="7.68148">
        <ele>383</ele>
        <time>2017-08-02T11:08:20+02:00</time>
      </trkpt>
      <trkpt lat="48.07922" lon="7.68151">
        <ele>384</ele>
        <time>2017-08-02T11:08:25+02:00</time>
      </trkpt>
      <trkpt lat="48.07933" lon="7.68153">
        <ele>384</ele>
        <time>2017-08-02T11:08:30+02:00</time>
      </trkpt>
      <trkpt lat="48.07942" lon="7.68155">
        <ele>385</ele>
        <time>2017-08-02T11:08:35+02:00</time>
      </trkpt>
      <trkpt lat="48.07951" lon="7.68158">
        <ele>385</ele>
        <time>2017-08-02T11:08:40+02:00</time>
      </trkpt>
      <trkpt lat="48.0796" lon="7.68166">
        <ele>384</ele>
        <time>2017-08-02T11:08:45+02:00</time>
      </trkpt>
      <trkpt lat="48.07968" lon="7.68172">
        <ele>384</ele>
        <time>2017-08-02T11:08:50+02:00</time>
      </trkpt>
      <trkpt lat="48.07977" lon="7.68176">
        <ele>383</ele>
        <time>2017-08-02T11:08:55+02:00</time>
      </trkpt>
      <trkpt lat="48.07985" lon="7.68182">
        <ele>383</ele>
        <time>2017-08-02T11:09:00+02:00</time>
      </trkpt>
      <trkpt lat="48.07995" lon="7.68189">
        <ele>383</ele>
        <time>2017-08-02T11:09:05+02:00</time>
      </trkpt>
      <trkpt lat="48.08004" lon="7.68192">
        <ele>383</ele>
        <time>2017-08-02T11:09:10+02:00</time>
      </trkpt>
      <trkpt lat="48.08015" lon="7.68192">
        <ele>385</ele>
        <time>2017-08-02T11:09:15+02:00</time>
      </trkpt>
      <trkpt lat="48.08024" lon="7.6819">
        <ele>386</ele>
        <time>2017-08-02T11:09:20+02:00</time>
      </trkpt>
      <trkpt lat="48.08032" lon="7.68185">
        <ele>388</ele>
        <time>2017-08-02T11:09:25+02:00</time>
      </trkpt>
      <trkpt lat="48.08042" lon="7.68181">
        <ele>390</ele>
        <time>2017-08-02T11:09:30+02:00</time>
      </trkpt>
      <trkpt lat="48.08051" lon="7.68183">
        <ele>391</ele>
        <time>2017-08-02T11:09:35+02:00</time>
      </trkpt>
      <trkpt lat="48.08062" lon="7.6819">
        <ele>392</ele>
        <time>2017-08-02T11:09:40+02:00</time>
      </trkpt>
      <trkpt lat="48.08067" lon="7.68201">
        <ele>392</ele>
        <time>2017-08-02T11:09:45+02:00</time>
      </trkpt>
      <trkpt lat="48.08072" lon="7.68214">
        <ele>391</ele>
        <time>2017-08-02T11:09:50+02:00</time>
      </trkpt>
      <trkpt lat="48.08072" lon="7.68228">
        <ele>390</ele>
        <time>2017-08-02T11:09:55+02:00</time>
      </trkpt>
      <trkpt lat="48.08073" lon="7.68242">
        <ele>389</ele>
        <time>2017-08-02T11:10:00+02:00</time>
      </trkpt>
      <trkpt lat="48.0807" lon="7.68254">
        <ele>387</ele>
        <time>2017-08-02T11:10:05+02:00</time>
      </trkpt>
      <trkpt lat="48.08069" lon="7.6827">
        <ele>386</ele>
        <time>2017-08-02T11:10:10+02:00</time>
      </trkpt>
      <trkpt lat="48.08066" lon="7.68284">
        <ele>384</ele>
        <time>2017-08-02T11:10:15+02:00</time>
      </trkpt>
      <trkpt lat="48.08059" lon="7.68292">
        <ele>383</ele>
        <time>2017-08-02T11:10:20+02:00</time>
      </trkpt>
      <trkpt lat="48.08056" lon="7.68307">
        <ele>381</ele>
        <time>2017-08-02T11:10:25+02:00</time>
      </trkpt>
      <trkpt lat="48.08055" lon="7.6832">
        <ele>380</ele>
        <time>2017-08-02T11:10:30+02:00</time>
      </trkpt>
      <trkpt lat="48.08063" lon="7.68332">
        <ele>381</ele>
        <time>2017-08-02T11:10:35+02:00</time>
      </trkpt>
      <trkpt lat="48.08072" lon="7.6834">
        <ele>382</ele>
        <time>2017-08-02T11:10:40+02:00</time>
      </trkpt>
      <trkpt lat="48.0808" lon="7.68345">
        <ele>383</ele>
        <time>2017-08-02T11:10:45+02:00</time>
      </trkpt>
      <trkpt lat="48.08089" lon="7.68349">
        <ele>383</ele>
        <time>2017-08-02T11:10:50+02:00</time>
      </trkpt>
      <trkpt lat="48.08098" lon="7.68357">
        <ele>383</ele>
        <time>2017-08-02T11:10:55+02:00</time>
      </trkpt>
      <trkpt lat="48.08106" lon="7.68363">
        <ele>383</ele>
        <time>2017-08-02T11:11:00+02:00</time>
      </trkpt>
      <trkpt lat="48.08115" lon="7.68368">
        <ele>384</ele>
        <time>2017-08-02T11:11:05+02:00</time>
      </trkpt>
      <trkpt lat="48.08124" lon="7.68367">
        <ele>385</ele>
        <time>2017-08-02T11:11:10+02:00</time>
      </trkpt>
      <trkpt lat="48.08133" lon="7.68363">
        <ele>386</ele>
        <time>2017-08-02T11:11:15+02:00</time>
      </trkpt>
      <trkpt lat="48.08144" lon="7.68359">
        <ele>388</ele>
        <time>2017-08-02T11:11:20+02:00</time>
      </trkpt>
      <trkpt lat="48.08156" lon="7.68365">
        <ele>389</ele>
        <time>2017-08-02T11:11:25+02:00</time>
      </trkpt>
      <trkpt lat="48.08167" lon="7.68373">
        <ele>390</ele>
        <time>2017-08-02T11:11:30+02:00</time>
      </trkpt>
      <trkpt lat="48.08175" lon="7.6838">
        <ele>391</ele>
        <time>2017-08-02T11:11:35+02:00</time>
      </trkpt>
      <trkpt lat="48.08182" lon="7.68388">
        <ele>391</ele>
        <time>2017-08-02T11:11:40+02:00</time>
      </trkpt>
      <trkpt lat="48.08192" lon="7.68393">
        <ele>393</ele>
        <time>2017-08-02T11:11:45+02:00</time>
      </trkpt>
      <trkpt lat="48.08202" lon="7.68393">
        <ele>395</ele>
        <time>2017-08-02T11:11:50+02:00</time>
      </trkpt>
      <trkpt lat="48.0821" lon="7.68388">
        <ele>397</ele>
        <time>2017-08-02T11:11:55+02:00</time>
      </trkpt>
      <trkpt lat="48.0822" lon="7.68383">
        <ele>399</ele>
        <time>2017-08-02T11:12:00+02:00</time>
      </trkpt>
      <trkpt lat="48.08229" lon="7.68378">
        <ele>401</ele>
        <time>2017-08-02T11:12:05+02:00</time>
      </trkpt>
      <trkpt lat="48.08237" lon="7.68373">
        <ele>403</ele>
        <time>2017-08-02T11:12:10+02:00</time>
      </trkpt>
      <trkpt lat="48.08245" lon="7.68366">
        <ele>404</ele>
        <time>2017-08-02T11:12:15+02:00</time>
      </trkpt>
      <trkpt lat="48.0825" lon="7.68352">
        <ele>405</ele>
        <time>2017-08-02T11:12:20+02:00</time>
      </trkpt>
      <trkpt lat="48.08246" lon="7.68337">
        <ele>405</ele>
        <time>2017-08-02T11:12:25+02:00</time>
      </trkpt>
      <trkpt lat="48.08248" lon="7.6832">
        <ele>408</ele>
        <time>2017-08-02T11:12:30+02:00</time>
      </trkpt>
      <trkpt lat="48.08247" lon="7.68306">
        <ele>409</ele>
        <time>2017-08-02T11:12:35+02:00</time>
      </trkpt>
      <trkpt lat="48.08246" lon="7.68292">
        <ele>411</ele>
        <time>2017-08-02T11:12:40+02:00</time>
      </trkpt>
      <trkpt lat="48.08246" lon="7.68275">
        <ele>414</ele>
        <time>2017-08-02T11:12:45+02:00</time>
      </trkpt>
      <trkpt lat="48.08245" lon="7.6826">
        <ele>416</ele>
        <time>2017-08-02T11:12:50+02:00</time>
      </trkpt>
      <trkpt lat="48.0825" lon="7.68245">
        <ele>419</ele>
        <time>2017-08-02T11:12:55+02:00</time>
      </trkpt>
      <trkpt lat="48.08248" lon="7.68231">
        <ele>422</ele>
        <time>2017-08-02T11:13:00+02:00</time>
      </trkpt>
      <trkpt lat="48.0824" lon="7.68225">
        <ele>422</ele>
        <time>2017-08-02T11:13:05+02:00</time>
      </trkpt>
      <trkpt lat="48.08231" lon="7.68227">
        <ele>419</ele>
        <time>2017-08-02T11:13:10+02:00</time>
      </trkpt>
      <trkpt lat="48.08222" lon="7.6823">
        <ele>417</ele>
        <time>2017-08-02T11:13:15+02:00</time>
      </trkpt>
      <trkpt lat="48.08213" lon="7.68237">
        <ele>414</ele>
        <time>2017-08-02T11:13:20+02:00</time>
      </trkpt>
      <trkpt lat="48.08204" lon="7.68241">
        <ele>412</ele>
        <time>2017-08-02T11:13:25+02:00</time>
      </trkpt>
      <trkpt lat="48.08199" lon="7.68227">
        <ele>414</ele>
        <time>2017-08-02T11:13:30+02:00</time>
      </trkpt>
      <trkpt lat="48.08194" lon="7.68214">
        <ele>416</ele>
        <time>2017-08-02T11:13:35+02:00</time>
      </trkpt>
      <trkpt lat="48.08188" lon="7.68205">
        <ele>417</ele>
        <time>2017-08-02T11:13:40+02:00</time>
      </trkpt>
      <trkpt lat="48.08178" lon="7.68195">
        <ele>418</ele>
        <time>2017-08-02T11:13:45+02:00</time>
      </trkpt>
      <trkpt lat="48.0819" lon="7.68195">
        <ele>420</ele>
        <time>2017-08-02T11:13:50+02:00</time>
      </trkpt>
      <trkpt lat="48.08201" lon="7.68194">
        <ele>422</ele>
        <time>2017-08-02T11:13:55+02:00</time>
      </trkpt>
      <trkpt lat="48.08211" lon="7.68193">
        <ele>424</ele>
        <time>2017-08-02T11:14:00+02:00</time>
      </trkpt>
      <trkpt lat="48.0822" lon="7.68195">
        <ele>425</ele>
        <time>2017-08-02T11:14:05+02:00</time>
      </trkpt>
      <trkpt lat="48.08231" lon="7.68195">
        <ele>426</ele>
        <time>2017-08-02T11:14:10+02:00</time>
      </trkpt>
      <trkpt lat="48.0824" lon="7.68197">
        <ele>427</ele>
        <time>2017-08-02T11:14:15+02:00</time>
      </trkpt>
      <trkpt lat="48.08249" lon="7.68201">
        <ele>428</ele>
        <time>2017-08-02T11:14:20+02:00</time>
      </trkpt>
      <trkpt lat="48.08258" lon="7.6821">
        <ele>428</ele>
        <time>2017-08-02T11:14:25+02:00</time>
      </trkpt>
      <trkpt lat="48.08266" lon="7.68222">
        <ele>427</ele>
        <time>2017-08-02T11:14:30+02:00</time>
      </trkpt>
      <trkpt lat="48.08272" lon="7.68237">
        <ele>426</ele>
        <time>2017-08-02T11:14:35+02:00</time>
      </trkpt>
      <trkpt lat="48.08275" lon="7.68253">
        <ele>423</ele>
        <time>2017-08-02T11:14:40+02:00</time>
      </trkpt>
      <trkpt lat="48.08267" lon="7.68261">
        <ele>420</ele>
        <time>2017-08-02T11:14:45+02:00</time>
      </trkpt>
      <trkpt lat="48.0827" lon="7.68276">
        <ele>419</ele>
        <time>2017-08-02T11:14:50+02:00</time>
      </trkpt>
      <trkpt lat="48.08278" lon="7.68284">
        <ele>420</ele>
        <time>2017-08-02T11:14:55+02:00</time>
      </trkpt>
      <trkpt lat="48.08287" lon="7.68287">
        <ele>422</ele>
        <time>2017-08-02T11:15:00+02:00</time>
      </trkpt>
      <trkpt lat="48.08297" lon="7.68288">
        <ele>425</ele>
        <time>2017-08-02T11:15:05+02:00</time>
      </trkpt>
      <trkpt lat="48.08306" lon="7.68292">
        <ele>426</ele>
        <time>2017-08-02T11:15:10+02:00</time>
      </trkpt>
      <trkpt lat="48.08316" lon="7.68304">
        <ele>428</ele>
        <time>2017-08-02T11:15:15+02:00</time>
      </trkpt>
      <trkpt lat="48.0832" lon="7.68321">
        <ele>427</ele>
        <time>2017-08-02T11:15:20+02:00</time>
      </trkpt>
      <trkpt lat="48.08323" lon="7.68336">
        <ele>426</ele>
        <time>2017-08-02T11:15:25+02:00</time>
      </trkpt>
      <trkpt lat="48.08325" lon="7.6835">
        <ele>426</ele>
        <time>2017-08-02T11:15:30+02:00</time>
      </trkpt>
      <trkpt lat="48.08325" lon="7.68364">
        <ele>425</ele>
        <time>2017-08-02T11:15:35+02:00</time>
      </trkpt>
      <trkpt lat="48.08323" lon="7.68377">
        <ele>424</ele>
        <time>2017-08-02T11:15:40+02:00</time>
      </trkpt>
      <trkpt lat="48.0832" lon="7.68396">
        <ele>422</ele>
        <time>2017-08-02T11:15:45+02:00</time>
      </trkpt>
      <trkpt lat="48.08318" lon="7.6841">
        <ele>421</ele>
        <time>2017-08-02T11:15:50+02:00</time>
      </trkpt>
      <trkpt lat="48.08318" lon="7.68423">
        <ele>421</ele>
        <time>2017-08-02T11:15:55+02:00</time>
      </trkpt>
      <trkpt lat="48.08317" lon="7.68437">
        <ele>421</ele>
        <time>2017-08-02T11:16:00+02:00</time>
      </trkpt>
      <trkpt lat="48.08315" lon="7.68451">
        <ele>422</ele>
        <time>2017-08-02T11:16:05+02:00</time>
      </trkpt>
      <trkpt lat="48.0831" lon="7.68463">
        <ele>421</ele>
        <time>2017-08-02T11:16:10+02:00</time>
      </trkpt>
      <trkpt lat="48.08307" lon="7.68477">
        <ele>422</ele>
        <time>2017-08-02T11:16:15+02:00</time>
      </trkpt>
      <trkpt lat="48.08308" lon="7.68491">
        <ele>423</ele>
        <time>2017-08-02T11:16:20+02:00</time>
      </trkpt>
      <trkpt lat="48.0831" lon="7.68505">
        <ele>424</ele>
        <time>2017-08-02T11:16:25+02:00</time>
      </trkpt>
      <trkpt lat="48.08312" lon="7.68518">
        <ele>424</ele>
        <time>2017-08-02T11:16:30+02:00</time>
      </trkpt>
      <trkpt lat="48.08313" lon="7.68533">
        <ele>424</ele>
        <time>2017-08-02T11:16:35+02:00</time>
      </trkpt>
      <trkpt lat="48.08312" lon="7.68546">
        <ele>424</ele>
        <time>2017-08-02T11:16:40+02:00</time>
      </trkpt>
      <trkpt lat="48.08311" lon="7.6856">
        <ele>424</ele>
        <time>2017-08-02T11:16:45+02:00</time>
      </trkpt>
      <trkpt lat="48.0831" lon="7.68574">
        <ele>423</ele>
        <time>2017-08-02T11:16:50+02:00</time>
      </trkpt>
      <trkpt lat="48.08312" lon="7.68588">
        <ele>423</ele>
        <time>2017-08-02T11:16:55+02:00</time>
      </trkpt>
      <trkpt lat="48.08314" lon="7.68601">
        <ele>422</ele>
        <time>2017-08-02T11:17:00+02:00</time>
      </trkpt>
      <trkpt lat="48.0832" lon="7.6859">
        <ele>424</ele>
        <time>2017-08-02T11:17:05+02:00</time>
      </trkpt>
      <trkpt lat="48.08326" lon="7.6858">
        <ele>425</ele>
        <time>2017-08-02T11:17:10+02:00</time>
      </trkpt>
      <trkpt lat="48.08332" lon="7.68566">
        <ele>426</ele>
        <time>2017-08-02T11:17:15+02:00</time>
      </trkpt>
      <trkpt lat="48.08338" lon="7.68555">
        <ele>427</ele>
        <time>2017-08-02T11:17:20+02:00</time>
      </trkpt>
      <trkpt lat="48.08345" lon="7.68545">
        <ele>428</ele>
        <time>2017-08-02T11:17:25+02:00</time>
      </trkpt>
      <trkpt lat="48.0835" lon="7.68534">
        <ele>429</ele>
        <time>2017-08-02T11:17:30+02:00</time>
      </trkpt>
      <trkpt lat="48.08353" lon="7.68521">
        <ele>430</ele>
        <time>2017-08-02T11:17:35+02:00</time>
      </trkpt>
      <trkpt lat="48.0836" lon="7.68511">
        <ele>431</ele>
        <time>2017-08-02T11:17:40+02:00</time>
      </trkpt>
      <trkpt lat="48.08363" lon="7.68497">
        <ele>432</ele>
        <time>2017-08-02T11:17:45+02:00</time>
      </trkpt>
      <trkpt lat="48.08366" lon="7.68484">
        <ele>433</ele>
        <time>2017-08-02T11:17:50+02:00</time>
      </trkpt>
      <trkpt lat="48.08371" lon="7.68471">
        <ele>433</ele>
        <time>2017-08-02T11:17:55+02:00</time>
      </trkpt>
      <trkpt lat="48.08378" lon="7.68456">
        <ele>434</ele>
        <time>2017-08-02T11:18:00+02:00</time>
      </trkpt>
      <trkpt lat="48.08383" lon="7.68445">
        <ele>435</ele>
        <time>2017-08-02T11:18:05+02:00</time>
      </trkpt>
      <trkpt lat="48.0839" lon="7.68434">
        <ele>436</ele>
        <time>2017-08-02T11:18:10+02:00</time>
      </trkpt>
      <trkpt lat="48.08394" lon="7.68422">
        <ele>437</ele>
        <time>2017-08-02T11:18:15+02:00</time>
      </trkpt>
      <trkpt lat="48.08396" lon="7.68408">
        <ele>438</ele>
        <time>2017-08-02T11:18:20+02:00</time>
      </trkpt>
      <trkpt lat="48.08399" lon="7.68395">
        <ele>439</ele>
        <time>2017-08-02T11:18:25+02:00</time>
      </trkpt>
      <trkpt lat="48.08405" lon="7.68384">
        <ele>441</ele>
        <time>2017-08-02T11:18:30+02:00</time>
      </trkpt>
      <trkpt lat="48.08408" lon="7.68371">
        <ele>442</ele>
        <time>2017-08-02T11:18:35+02:00</time>
      </trkpt>
      <trkpt lat="48.08411" lon="7.68358">
        <ele>444</ele>
        <time>2017-08-02T11:18:40+02:00</time>
      </trkpt>
      <trkpt lat="48.08416" lon="7.68347">
        <ele>445</ele>
        <time>2017-08-02T11:18:45+02:00</time>
      </trkpt>
      <trkpt lat="48.08425" lon="7.68329">
        <ele>445</ele>
        <time>2017-08-02T11:18:50+02:00</time>
      </trkpt>
      <trkpt lat="48.08429" lon="7.68316">
        <ele>445</ele>
        <time>2017-08-02T11:18:55+02:00</time>
      </trkpt>
      <trkpt lat="48.08433" lon="7.68304">
        <ele>445</ele>
        <time>2017-08-02T11:19:00+02:00</time>
      </trkpt>
      <trkpt lat="48.08439" lon="7.68291">
        <ele>445</ele>
        <time>2017-08-02T11:19:05+02:00</time>
      </trkpt>
      <trkpt lat="48.0844" lon="7.68278">
        <ele>446</ele>
        <time>2017-08-02T11:19:10+02:00</time>
      </trkpt>
      <trkpt lat="48.0844" lon="7.68261">
        <ele>448</ele>
        <time>2017-08-02T11:19:15+02:00</time>
      </trkpt>
      <trkpt lat="48.08437" lon="7.68247">
        <ele>450</ele>
        <time>2017-08-02T11:19:20+02:00</time>
      </trkpt>
      <trkpt lat="48.08432" lon="7.68234">
        <ele>452</ele>
        <time>2017-08-02T11:19:25+02:00</time>
      </trkpt>
      <trkpt lat="48.08428" lon="7.68222">
        <ele>455</ele>
        <time>2017-08-02T11:19:30+02:00</time>
      </trkpt>
      <trkpt lat="48.08421" lon="7.68211">
        <ele>457</ele>
        <time>2017-08-02T11:19:35+02:00</time>
      </trkpt>
      <trkpt lat="48.08414" lon="7.68201">
        <ele>458</ele>
        <time>2017-08-02T11:19:40+02:00</time>
      </trkpt>
      <trkpt lat="48.08407" lon="7.68192">
        <ele>459</ele>
        <time>2017-08-02T11:19:45+02:00</time>
      </trkpt>
      <trkpt lat="48.08402" lon="7.68181">
        <ele>460</ele>
        <time>2017-08-02T11:19:50+02:00</time>
      </trkpt>
      <trkpt lat="48.08399" lon="7.68167">
        <ele>462</ele>
        <time>2017-08-02T11:19:55+02:00</time>
      </trkpt>
      <trkpt lat="48.08395" lon="7.68154">
        <ele>461</ele>
        <time>2017-08-02T11:20:00+02:00</time>
      </trkpt>
      <trkpt lat="48.08391" lon="7.68142">
        <ele>460</ele>
        <time>2017-08-02T11:20:05+02:00</time>
      </trkpt>
      <trkpt lat="48.08386" lon="7.68127">
        <ele>460</ele>
        <time>2017-08-02T11:20:10+02:00</time>
      </trkpt>
      <trkpt lat="48.08381" lon="7.68115">
        <ele>460</ele>
        <time>2017-08-02T11:20:15+02:00</time>
      </trkpt>
      <trkpt lat="48.0838" lon="7.681">
        <ele>460</ele>
        <time>2017-08-02T11:20:20+02:00</time>
      </trkpt>
      <trkpt lat="48.08378" lon="7.68086">
        <ele>460</ele>
        <time>2017-08-02T11:20:25+02:00</time>
      </trkpt>
      <trkpt lat="48.08376" lon="7.68072">
        <ele>459</ele>
        <time>2017-08-02T11:20:30+02:00</time>
      </trkpt>
      <trkpt lat="48.08371" lon="7.68059">
        <ele>458</ele>
        <time>2017-08-02T11:20:35+02:00</time>
      </trkpt>
      <trkpt lat="48.08367" lon="7.68047">
        <ele>458</ele>
        <time>2017-08-02T11:20:40+02:00</time>
      </trkpt>
      <trkpt lat="48.08362" lon="7.68034">
        <ele>457</ele>
        <time>2017-08-02T11:20:45+02:00</time>
      </trkpt>
      <trkpt lat="48.08356" lon="7.68021">
        <ele>458</ele>
        <time>2017-08-02T11:20:50+02:00</time>
      </trkpt>
      <trkpt lat="48.08349" lon="7.68011">
        <ele>458</ele>
        <time>2017-08-02T11:20:55+02:00</time>
      </trkpt>
      <trkpt lat="48.08342" lon="7.67999">
        <ele>459</ele>
        <time>2017-08-02T11:21:00+02:00</time>
      </trkpt>
      <trkpt lat="48.08335" lon="7.67989">
        <ele>460</ele>
        <time>2017-08-02T11:21:05+02:00</time>
      </trkpt>
      <trkpt lat="48.08325" lon="7.67981">
        <ele>459</ele>
        <time>2017-08-02T11:21:10+02:00</time>
      </trkpt>
      <trkpt lat="48.08318" lon="7.67971">
        <ele>459</ele>
        <time>2017-08-02T11:21:15+02:00</time>
      </trkpt>
      <trkpt lat="48.08308" lon="7.6796">
        <ele>459</ele>
        <time>2017-08-02T11:21:20+02:00</time>
      </trkpt>
      <trkpt lat="48.083" lon="7.67953">
        <ele>460</ele>
        <time>2017-08-02T11:21:25+02:00</time>
      </trkpt>
      <trkpt lat="48.08291" lon="7.67946">
        <ele>461</ele>
        <time>2017-08-02T11:21:30+02:00</time>
      </trkpt>
      <trkpt lat="48.08281" lon="7.6794">
        <ele>462</ele>
        <time>2017-08-02T11:21:35+02:00</time>
      </trkpt>
      <trkpt lat="48.08274" lon="7.67931">
        <ele>464</ele>
        <time>2017-08-02T11:21:40+02:00</time>
      </trkpt>
      <trkpt lat="48.08266" lon="7.67921">
        <ele>465</ele>
        <time>2017-08-02T11:21:45+02:00</time>
      </trkpt>
      <trkpt lat="48.08258" lon="7.67911">
        <ele>468</ele>
        <time>2017-08-02T11:21:50+02:00</time>
      </trkpt>
      <trkpt lat="48.08252" lon="7.679">
        <ele>469</ele>
        <time>2017-08-02T11:21:55+02:00</time>
      </trkpt>
      <trkpt lat="48.0825" lon="7.67886">
        <ele>470</ele>
        <time>2017-08-02T11:22:00+02:00</time>
      </trkpt>
      <trkpt lat="48.08245" lon="7.67874">
        <ele>470</ele>
        <time>2017-08-02T11:22:05+02:00</time>
      </trkpt>
      <trkpt lat="48.08238" lon="7.67863">
        <ele>470</ele>
        <time>2017-08-02T11:22:10+02:00</time>
      </trkpt>
      <trkpt lat="48.08231" lon="7.67855">
        <ele>470</ele>
        <time>2017-08-02T11:22:15+02:00</time>
      </trkpt>
      <trkpt lat="48.08223" lon="7.67844">
        <ele>471</ele>
        <time>2017-08-02T11:22:20+02:00</time>
      </trkpt>
      <trkpt lat="48.08217" lon="7.67829">
        <ele>472</ele>
        <time>2017-08-02T11:22:25+02:00</time>
      </trkpt>
      <trkpt lat="48.08213" lon="7.67816">
        <ele>473</ele>
        <time>2017-08-02T11:22:30+02:00</time>
      </trkpt>
      <trkpt lat="48.08209" lon="7.67804">
        <ele>474</ele>
        <time>2017-08-02T11:22:35+02:00</time>
      </trkpt>
      <trkpt lat="48.08203" lon="7.6779">
        <ele>475</ele>
        <time>2017-08-02T11:22:40+02:00</time>
      </trkpt>
      <trkpt lat="48.08199" lon="7.67774">
        <ele>477</ele>
        <time>2017-08-02T11:22:45+02:00</time>
      </trkpt>
      <trkpt lat="48.08197" lon="7.67757">
        <ele>478</ele>
        <time>2017-08-02T11:22:50+02:00</time>
      </trkpt>
      <trkpt lat="48.08196" lon="7.67738">
        <ele>481</ele>
        <time>2017-08-02T11:22:55+02:00</time>
      </trkpt>
      <trkpt lat="48.08192" lon="7.67725">
        <ele>483</ele>
        <time>2017-08-02T11:23:00+02:00</time>
      </trkpt>
      <trkpt lat="48.08186" lon="7.67714">
        <ele>485</ele>
        <time>2017-08-02T11:23:05+02:00</time>
      </trkpt>
      <trkpt lat="48.08185" lon="7.67698">
        <ele>487</ele>
        <time>2017-08-02T11:23:10+02:00</time>
      </trkpt>
      <trkpt lat="48.08182" lon="7.67685">
        <ele>489</ele>
        <time>2017-08-02T11:23:15+02:00</time>
      </trkpt>
      <trkpt lat="48.08178" lon="7.67672">
        <ele>492</ele>
        <time>2017-08-02T11:23:20+02:00</time>
      </trkpt>
      <trkpt lat="48.08173" lon="7.67659">
        <ele>493</ele>
        <time>2017-08-02T11:23:25+02:00</time>
      </trkpt>
      <trkpt lat="48.08164" lon="7.67654">
        <ele>494</ele>
        <time>2017-08-02T11:23:30+02:00</time>
      </trkpt>
      <trkpt lat="48.08154" lon="7.67638">
        <ele>493</ele>
        <time>2017-08-02T11:23:35+02:00</time>
      </trkpt>
      <trkpt lat="48.08149" lon="7.67628">
        <ele>493</ele>
        <time>2017-08-02T11:23:40+02:00</time>
      </trkpt>
      <trkpt lat="48.08141" lon="7.6762">
        <ele>493</ele>
        <time>2017-08-02T11:23:45+02:00</time>
      </trkpt>
      <trkpt lat="48.08133" lon="7.67612">
        <ele>493</ele>
        <time>2017-08-02T11:23:50+02:00</time>
      </trkpt>
      <trkpt lat="48.08127" lon="7.67601">
        <ele>493</ele>
        <time>2017-08-02T11:23:55+02:00</time>
      </trkpt>
      <trkpt lat="48.08125" lon="7.67584">
        <ele>493</ele>
        <time>2017-08-02T11:24:00+02:00</time>
      </trkpt>
      <trkpt lat="48.08125" lon="7.6757">
        <ele>493</ele>
        <time>2017-08-02T11:24:05+02:00</time>
      </trkpt>
      <trkpt lat="48.08126" lon="7.67556">
        <ele>494</ele>
        <time>2017-08-02T11:24:10+02:00</time>
      </trkpt>
      <trkpt lat="48.08124" lon="7.67543">
        <ele>494</ele>
        <time>2017-08-02T11:24:15+02:00</time>
      </trkpt>
      <trkpt lat="48.08122" lon="7.67528">
        <ele>495</ele>
        <time>2017-08-02T11:24:20+02:00</time>
      </trkpt>
      <trkpt lat="48.08122" lon="7.67513">
        <ele>496</ele>
        <time>2017-08-02T11:24:25+02:00</time>
      </trkpt>
      <trkpt lat="48.08118" lon="7.675">
        <ele>497</ele>
        <time>2017-08-02T11:24:30+02:00</time>
      </trkpt>
      <trkpt lat="48.08117" lon="7.67486">
        <ele>500</ele>
        <time>2017-08-02T11:24:35+02:00</time>
      </trkpt>
      <trkpt lat="48.08117" lon="7.67472">
        <ele>502</ele>
        <time>2017-08-02T11:24:40+02:00</time>
      </trkpt>
      <trkpt lat="48.08118" lon="7.67457">
        <ele>505</ele>
        <time>2017-08-02T11:24:45+02:00</time>
      </trkpt>
      <trkpt lat="48.08115" lon="7.67444">
        <ele>508</ele>
        <time>2017-08-02T11:24:50+02:00</time>
      </trkpt>
      <trkpt lat="48.08113" lon="7.6743">
        <ele>511</ele>
        <time>2017-08-02T11:24:55+02:00</time>
      </trkpt>
      <trkpt lat="48.08115" lon="7.67416">
        <ele>513</ele>
        <time>2017-08-02T11:25:00+02:00</time>
      </trkpt>
      <trkpt lat="48.08117" lon="7.67403">
        <ele>514</ele>
        <time>2017-08-02T11:25:05+02:00</time>
      </trkpt>
      <trkpt lat="48.08117" lon="7.67389">
        <ele>517</ele>
        <time>2017-08-02T11:25:10+02:00</time>
      </trkpt>
      <trkpt lat="48.08112" lon="7.67373">
        <ele>520</ele>
        <time>2017-08-02T11:25:15+02:00</time>
      </trkpt>
      <trkpt lat="48.08109" lon="7.6736">
        <ele>523</ele>
        <time>2017-08-02T11:25:20+02:00</time>
      </trkpt>
      <trkpt lat="48.08104" lon="7.67347">
        <ele>526</ele>
        <time>2017-08-02T11:25:25+02:00</time>
      </trkpt>
      <trkpt lat="48.08103" lon="7.67334">
        <ele>529</ele>
        <time>2017-08-02T11:25:30+02:00</time>
      </trkpt>
      <trkpt lat="48.08096" lon="7.67324">
        <ele>531</ele>
        <time>2017-08-02T11:25:35+02:00</time>
      </trkpt>
      <trkpt lat="48.08098" lon="7.67311">
        <ele>532</ele>
        <time>2017-08-02T11:25:40+02:00</time>
      </trkpt>
      <trkpt lat="48.08098" lon="7.67297">
        <ele>533</ele>
        <time>2017-08-02T11:25:45+02:00</time>
      </trkpt>
      <trkpt lat="48.08094" lon="7.67284">
        <ele>535</ele>
        <time>2017-08-02T11:25:50+02:00</time>
      </trkpt>
      <trkpt lat="48.08094" lon="7.67271">
        <ele>536</ele>
        <time>2017-08-02T11:25:55+02:00</time>
      </trkpt>
      <trkpt lat="48.08086" lon="7.67265">
        <ele>538</ele>
        <time>2017-08-02T11:26:00+02:00</time>
      </trkpt>
      <trkpt lat="48.08091" lon="7.67254">
        <ele>538</ele>
        <time>2017-08-02T11:26:05+02:00</time>
      </trkpt>
      <trkpt lat="48.08088" lon="7.6724">
        <ele>539</ele>
        <time>2017-08-02T11:26:10+02:00</time>
      </trkpt>
      <trkpt lat="48.0809" lon="7.67227">
        <ele>539</ele>
        <time>2017-08-02T11:26:15+02:00</time>
      </trkpt>
      <trkpt lat="48.08093" lon="7.67214">
        <ele>539</ele>
        <time>2017-08-02T11:26:20+02:00</time>
      </trkpt>
      <trkpt lat="48.08091" lon="7.67201">
        <ele>539</ele>
        <time>2017-08-02T11:26:25+02:00</time>
      </trkpt>
      <trkpt lat="48.08091" lon="7.67187">
        <ele>539</ele>
        <time>2017-08-02T11:26:30+02:00</time>
      </trkpt>
      <trkpt lat="48.08093" lon="7.67174">
        <ele>539</ele>
        <time>2017-08-02T11:26:35+02:00</time>
      </trkpt>
      <trkpt lat="48.08097" lon="7.6716">
        <ele>540</ele>
        <time>2017-08-02T11:26:40+02:00</time>
      </trkpt>
      <trkpt lat="48.08098" lon="7.67145">
        <ele>540</ele>
        <time>2017-08-02T11:26:45+02:00</time>
      </trkpt>
      <trkpt lat="48.08103" lon="7.67134">
        <ele>541</ele>
        <time>2017-08-02T11:26:50+02:00</time>
      </trkpt>
      <trkpt lat="48.08107" lon="7.67121">
        <ele>541</ele>
        <time>2017-08-02T11:26:55+02:00</time>
      </trkpt>
      <trkpt lat="48.08099" lon="7.67112">
        <ele>542</ele>
        <time>2017-08-02T11:27:00+02:00</time>
      </trkpt>
      <trkpt lat="48.08093" lon="7.67101">
        <ele>543</ele>
        <time>2017-08-02T11:27:05+02:00</time>
      </trkpt>
      <trkpt lat="48.08091" lon="7.67088">
        <ele>544</ele>
        <time>2017-08-02T11:27:10+02:00</time>
      </trkpt>
      <trkpt lat="48.08086" lon="7.67075">
        <ele>544</ele>
        <time>2017-08-02T11:27:15+02:00</time>
      </trkpt>
      <trkpt lat="48.0808" lon="7.67064">
        <ele>544</ele>
        <time>2017-08-02T11:27:20+02:00</time>
      </trkpt>
      <trkpt lat="48.08074" lon="7.67054">
        <ele>541</ele>
        <time>2017-08-02T11:27:25+02:00</time>
      </trkpt>
      <trkpt lat="48.08066" lon="7.67048">
        <ele>539</ele>
        <time>2017-08-02T11:27:30+02:00</time>
      </trkpt>
      <trkpt lat="48.08059" lon="7.67039">
        <ele>537</ele>
        <time>2017-08-02T11:27:35+02:00</time>
      </trkpt>
      <trkpt lat="48.08052" lon="7.67029">
        <ele>535</ele>
        <time>2017-08-02T11:27:40+02:00</time>
      </trkpt>
      <trkpt lat="48.08046" lon="7.67019">
        <ele>534</ele>
        <time>2017-08-02T11:27:45+02:00</time>
      </trkpt>
      <trkpt lat="48.08038" lon="7.67011">
        <ele>532</ele>
        <time>2017-08-02T11:27:50+02:00</time>
      </trkpt>
      <trkpt lat="48.0803" lon="7.67003">
        <ele>530</ele>
        <time>2017-08-02T11:27:55+02:00</time>
      </trkpt>
      <trkpt lat="48.08024" lon="7.66992">
        <ele>529</ele>
        <time>2017-08-02T11:28:00+02:00</time>
      </trkpt>
      <trkpt lat="48.08013" lon="7.66986">
        <ele>526</ele>
        <time>2017-08-02T11:28:05+02:00</time>
      </trkpt>
      <trkpt lat="48.08005" lon="7.66979">
        <ele>524</ele>
        <time>2017-08-02T11:28:10+02:00</time>
      </trkpt>
      <trkpt lat="48.07999" lon="7.66963">
        <ele>524</ele>
        <time>2017-08-02T11:28:15+02:00</time>
      </trkpt>
      <trkpt lat="48.0799" lon="7.66963">
        <ele>521</ele>
        <time>2017-08-02T11:28:20+02:00</time>
      </trkpt>
      <trkpt lat="48.0798" lon="7.66967">
        <ele>517</ele>
        <time>2017-08-02T11:28:25+02:00</time>
      </trkpt>
      <trkpt lat="48.0797" lon="7.66969">
        <ele>514</ele>
        <time>2017-08-02T11:28:30+02:00</time>
      </trkpt>
      <trkpt lat="48.0796" lon="7.66968">
        <ele>511</ele>
        <time>2017-08-02T11:28:35+02:00</time>
      </trkpt>
      <trkpt lat="48.07951" lon="7.66965">
        <ele>508</ele>
        <time>2017-08-02T11:28:40+02:00</time>
      </trkpt>
      <trkpt lat="48.0794" lon="7.66967">
        <ele>505</ele>
        <time>2017-08-02T11:28:45+02:00</time>
      </trkpt>
      <trkpt lat="48.0793" lon="7.66967">
        <ele>502</ele>
        <time>2017-08-02T11:28:50+02:00</time>
      </trkpt>
      <trkpt lat="48.07921" lon="7.66967">
        <ele>499</ele>
        <time>2017-08-02T11:28:55+02:00</time>
      </trkpt>
      <trkpt lat="48.07912" lon="7.66966">
        <ele>497</ele>
        <time>2017-08-02T11:29:00+02:00</time>
      </trkpt>
      <trkpt lat="48.07901" lon="7.66967">
        <ele>495</ele>
        <time>2017-08-02T11:29:05+02:00</time>
      </trkpt>
      <trkpt lat="48.07893" lon="7.66961">
        <ele>494</ele>
        <time>2017-08-02T11:29:10+02:00</time>
      </trkpt>
      <trkpt lat="48.07885" lon="7.66955">
        <ele>493</ele>
        <time>2017-08-02T11:29:15+02:00</time>
      </trkpt>
      <trkpt lat="48.07877" lon="7.66947">
        <ele>492</ele>
        <time>2017-08-02T11:29:20+02:00</time>
      </trkpt>
      <trkpt lat="48.07869" lon="7.66941">
        <ele>490</ele>
        <time>2017-08-02T11:29:25+02:00</time>
      </trkpt>
      <trkpt lat="48.07861" lon="7.66934">
        <ele>489</ele>
        <time>2017-08-02T11:29:30+02:00</time>
      </trkpt>
      <trkpt lat="48.07856" lon="7.66922">
        <ele>488</ele>
        <time>2017-08-02T11:29:35+02:00</time>
      </trkpt>
      <trkpt lat="48.07848" lon="7.66913">
        <ele>487</ele>
        <time>2017-08-02T11:29:40+02:00</time>
      </trkpt>
      <trkpt lat="48.07837" lon="7.66909">
        <ele>485</ele>
        <time>2017-08-02T11:29:45+02:00</time>
      </trkpt>
      <trkpt lat="48.07833" lon="7.66897">
        <ele>483</ele>
        <time>2017-08-02T11:29:50+02:00</time>
      </trkpt>
      <trkpt lat="48.07827" lon="7.66886">
        <ele>482</ele>
        <time>2017-08-02T11:29:55+02:00</time>
      </trkpt>
      <trkpt lat="48.07819" lon="7.66876">
        <ele>481</ele>
        <time>2017-08-02T11:30:00+02:00</time>
      </trkpt>
      <trkpt lat="48.07812" lon="7.66867">
        <ele>480</ele>
        <time>2017-08-02T11:30:05+02:00</time>
      </trkpt>
      <trkpt lat="48.07805" lon="7.66859">
        <ele>479</ele>
        <time>2017-08-02T11:30:10+02:00</time>
      </trkpt>
      <trkpt lat="48.07797" lon="7.66849">
        <ele>479</ele>
        <time>2017-08-02T11:30:15+02:00</time>
      </trkpt>
      <trkpt lat="48.07788" lon="7.66843">
        <ele>479</ele>
        <time>2017-08-02T11:30:20+02:00</time>
      </trkpt>
      <trkpt lat="48.07779" lon="7.66838">
        <ele>480</ele>
        <time>2017-08-02T11:30:25+02:00</time>
      </trkpt>
      <trkpt lat="48.07767" lon="7.66836">
        <ele>480</ele>
        <time>2017-08-02T11:30:30+02:00</time>
      </trkpt>
      <trkpt lat="48.07759" lon="7.66827">
        <ele>481</ele>
        <time>2017-08-02T11:30:35+02:00</time>
      </trkpt>
      <trkpt lat="48.07765" lon="7.66816">
        <ele>481</ele>
        <time>2017-08-02T11:30:40+02:00</time>
      </trkpt>
      <trkpt lat="48.07756" lon="7.6681">
        <ele>481</ele>
        <time>2017-08-02T11:30:45+02:00</time>
      </trkpt>
      <trkpt lat="48.07747" lon="7.66805">
        <ele>481</ele>
        <time>2017-08-02T11:30:50+02:00</time>
      </trkpt>
      <trkpt lat="48.07738" lon="7.66801">
        <ele>481</ele>
        <time>2017-08-02T11:30:55+02:00</time>
      </trkpt>
      <trkpt lat="48.07729" lon="7.66797">
        <ele>481</ele>
        <time>2017-08-02T11:31:00+02:00</time>
      </trkpt>
      <trkpt lat="48.0772" lon="7.66787">
        <ele>480</ele>
        <time>2017-08-02T11:31:05+02:00</time>
      </trkpt>
      <trkpt lat="48.07713" lon="7.66778">
        <ele>480</ele>
        <time>2017-08-02T11:31:10+02:00</time>
      </trkpt>
      <trkpt lat="48.07708" lon="7.66766">
        <ele>479</ele>
        <time>2017-08-02T11:31:15+02:00</time>
      </trkpt>
      <trkpt lat="48.07701" lon="7.66758">
        <ele>479</ele>
        <time>2017-08-02T11:31:20+02:00</time>
      </trkpt>
      <trkpt lat="48.07695" lon="7.66746">
        <ele>478</ele>
        <time>2017-08-02T11:31:25+02:00</time>
      </trkpt>
      <trkpt lat="48.0769" lon="7.66734">
        <ele>477</ele>
        <time>2017-08-02T11:31:30+02:00</time>
      </trkpt>
      <trkpt lat="48.07686" lon="7.66722">
        <ele>476</ele>
        <time>2017-08-02T11:31:35+02:00</time>
      </trkpt>
      <trkpt lat="48.0768" lon="7.66711">
        <ele>475</ele>
        <time>2017-08-02T11:31:40+02:00</time>
      </trkpt>
      <trkpt lat="48.07673" lon="7.66702">
        <ele>474</ele>
        <time>2017-08-02T11:31:45+02:00</time>
      </trkpt>
      <trkpt lat="48.07666" lon="7.66693">
        <ele>474</ele>
        <time>2017-08-02T11:31:50+02:00</time>
      </trkpt>
      <trkpt lat="48.07659" lon="7.66684">
        <ele>473</ele>
        <time>2017-08-02T11:31:55+02:00</time>
      </trkpt>
      <trkpt lat="48.07653" lon="7.66673">
        <ele>471</ele>
        <time>2017-08-02T11:32:00+02:00</time>
      </trkpt>
      <trkpt lat="48.07649" lon="7.6666">
        <ele>471</ele>
        <time>2017-08-02T11:32:05+02:00</time>
      </trkpt>
      <trkpt lat="48.07644" lon="7.66648">
        <ele>470</ele>
        <time>2017-08-02T11:32:10+02:00</time>
      </trkpt>
      <trkpt lat="48.07639" lon="7.66637">
        <ele>470</ele>
        <time>2017-08-02T11:32:15+02:00</time>
      </trkpt>
      <trkpt lat="48.07634" lon="7.6662">
        <ele>470</ele>
        <time>2017-08-02T11:32:20+02:00</time>
      </trkpt>
      <trkpt lat="48.0763" lon="7.66608">
        <ele>470</ele>
        <time>2017-08-02T11:32:25+02:00</time>
      </trkpt>
      <trkpt lat="48.07624" lon="7.66595">
        <ele>471</ele>
        <time>2017-08-02T11:32:30+02:00</time>
      </trkpt>
      <trkpt lat="48.07619" lon="7.66585">
        <ele>472</ele>
        <time>2017-08-02T11:32:35+02:00</time>
      </trkpt>
      <trkpt lat="48.07615" lon="7.66572">
        <ele>472</ele>
        <time>2017-08-02T11:32:40+02:00</time>
      </trkpt>
      <trkpt lat="48.07612" lon="7.66558">
        <ele>473</ele>
        <time>2017-08-02T11:32:45+02:00</time>
      </trkpt>
      <trkpt lat="48.07608" lon="7.66545">
        <ele>473</ele>
        <time>2017-08-02T11:32:50+02:00</time>
      </trkpt>
      <trkpt lat="48.07602" lon="7.66533">
        <ele>474</ele>
        <time>2017-08-02T11:32:55+02:00</time>
      </trkpt>
      <trkpt lat="48.07596" lon="7.66523">
        <ele>476</ele>
        <time>2017-08-02T11:33:00+02:00</time>
      </trkpt>
      <trkpt lat="48.07588" lon="7.66514">
        <ele>478</ele>
        <time>2017-08-02T11:33:05+02:00</time>
      </trkpt>
      <trkpt lat="48.0758" lon="7.66507">
        <ele>479</ele>
        <time>2017-08-02T11:33:10+02:00</time>
      </trkpt>
      <trkpt lat="48.0757" lon="7.66498">
        <ele>479</ele>
        <time>2017-08-02T11:33:15+02:00</time>
      </trkpt>
      <trkpt lat="48.0756" lon="7.6649">
        <ele>478</ele>
        <time>2017-08-02T11:33:20+02:00</time>
      </trkpt>
      <trkpt lat="48.07552" lon="7.66484">
        <ele>478</ele>
        <time>2017-08-02T11:33:25+02:00</time>
      </trkpt>
      <trkpt lat="48.07543" lon="7.66478">
        <ele>477</ele>
        <time>2017-08-02T11:33:30+02:00</time>
      </trkpt>
      <trkpt lat="48.07536" lon="7.66468">
        <ele>477</ele>
        <time>2017-08-02T11:33:35+02:00</time>
      </trkpt>
      <trkpt lat="48.0753" lon="7.66457">
        <ele>476</ele>
        <time>2017-08-02T11:33:40+02:00</time>
      </trkpt>
      <trkpt lat="48.07528" lon="7.66442">
        <ele>476</ele>
        <time>2017-08-02T11:33:45+02:00</time>
      </trkpt>
      <trkpt lat="48.0752" lon="7.66432">
        <ele>476</ele>
        <time>2017-08-02T11:33:50+02:00</time>
      </trkpt>
      <trkpt lat="48.07513" lon="7.66425">
        <ele>476</ele>
        <time>2017-08-02T11:33:55+02:00</time>
      </trkpt>
      <trkpt lat="48.07504" lon="7.66419">
        <ele>477</ele>
        <time>2017-08-02T11:34:00+02:00</time>
      </trkpt>
      <trkpt lat="48.07494" lon="7.66416">
        <ele>475</ele>
        <time>2017-08-02T11:34:05+02:00</time>
      </trkpt>
      <trkpt lat="48.07485" lon="7.66411">
        <ele>473</ele>
        <time>2017-08-02T11:34:10+02:00</time>
      </trkpt>
      <trkpt lat="48.07475" lon="7.66408">
        <ele>470</ele>
        <time>2017-08-02T11:34:15+02:00</time>
      </trkpt>
      <trkpt lat="48.07466" lon="7.66404">
        <ele>468</ele>
        <time>2017-08-02T11:34:20+02:00</time>
      </trkpt>
      <trkpt lat="48.07456" lon="7.66399">
        <ele>465</ele>
        <time>2017-08-02T11:34:25+02:00</time>
      </trkpt>
      <trkpt lat="48.07447" lon="7.66397">
        <ele>463</ele>
        <time>2017-08-02T11:34:30+02:00</time>
      </trkpt>
      <trkpt lat="48.07438" lon="7.66399">
        <ele>462</ele>
        <time>2017-08-02T11:34:35+02:00</time>
      </trkpt>
      <trkpt lat="48.07428" lon="7.66393">
        <ele>460</ele>
        <time>2017-08-02T11:34:40+02:00</time>
      </trkpt>
      <trkpt lat="48.07419" lon="7.6639">
        <ele>458</ele>
        <time>2017-08-02T11:34:45+02:00</time>
      </trkpt>
      <trkpt lat="48.0741" lon="7.66385">
        <ele>456</ele>
        <time>2017-08-02T11:34:50+02:00</time>
      </trkpt>
      <trkpt lat="48.074" lon="7.66387">
        <ele>454</ele>
        <time>2017-08-02T11:34:55+02:00</time>
      </trkpt>
      <trkpt lat="48.07391" lon="7.66385">
        <ele>452</ele>
        <time>2017-08-02T11:35:00+02:00</time>
      </trkpt>
      <trkpt lat="48.07382" lon="7.66379">
        <ele>450</ele>
        <time>2017-08-02T11:35:05+02:00</time>
      </trkpt>
      <trkpt lat="48.07373" lon="7.66378">
        <ele>448</ele>
        <time>2017-08-02T11:35:10+02:00</time>
      </trkpt>
      <trkpt lat="48.07363" lon="7.66376">
        <ele>446</ele>
        <time>2017-08-02T11:35:15+02:00</time>
      </trkpt>
      <trkpt lat="48.07354" lon="7.66377">
        <ele>444</ele>
        <time>2017-08-02T11:35:20+02:00</time>
      </trkpt>
      <trkpt lat="48.07344" lon="7.66377">
        <ele>443</ele>
        <time>2017-08-02T11:35:25+02:00</time>
      </trkpt>
      <trkpt lat="48.07334" lon="7.66372">
        <ele>441</ele>
        <time>2017-08-02T11:35:30+02:00</time>
      </trkpt>
      <trkpt lat="48.07325" lon="7.66369">
        <ele>439</ele>
        <time>2017-08-02T11:35:35+02:00</time>
      </trkpt>
      <trkpt lat="48.07317" lon="7.66362">
        <ele>438</ele>
        <time>2017-08-02T11:35:40+02:00</time>
      </trkpt>
      <trkpt lat="48.07309" lon="7.66357">
        <ele>437</ele>
        <time>2017-08-02T11:35:45+02:00</time>
      </trkpt>
      <trkpt lat="48.07299" lon="7.66353">
        <ele>436</ele>
        <time>2017-08-02T11:35:50+02:00</time>
      </trkpt>
      <trkpt lat="48.07289" lon="7.66351">
        <ele>434</ele>
        <time>2017-08-02T11:35:55+02:00</time>
      </trkpt>
      <trkpt lat="48.0728" lon="7.66344">
        <ele>433</ele>
        <time>2017-08-02T11:36:00+02:00</time>
      </trkpt>
      <trkpt lat="48.07272" lon="7.66337">
        <ele>432</ele>
        <time>2017-08-02T11:36:05+02:00</time>
      </trkpt>
      <trkpt lat="48.07262" lon="7.66339">
        <ele>431</ele>
        <time>2017-08-02T11:36:10+02:00</time>
      </trkpt>
      <trkpt lat="48.07253" lon="7.66341">
        <ele>430</ele>
        <time>2017-08-02T11:36:15+02:00</time>
      </trkpt>
      <trkpt lat="48.07243" lon="7.66343">
        <ele>429</ele>
        <time>2017-08-02T11:36:20+02:00</time>
      </trkpt>
      <trkpt lat="48.07235" lon="7.66333">
        <ele>430</ele>
        <time>2017-08-02T11:36:25+02:00</time>
      </trkpt>
      <trkpt lat="48.07227" lon="7.66327">
        <ele>430</ele>
        <time>2017-08-02T11:36:30+02:00</time>
      </trkpt>
      <trkpt lat="48.07219" lon="7.66319">
        <ele>430</ele>
        <time>2017-08-02T11:36:35+02:00</time>
      </trkpt>
      <trkpt lat="48.07212" lon="7.66308">
        <ele>430</ele>
        <time>2017-08-02T11:36:40+02:00</time>
      </trkpt>
      <trkpt lat="48.07204" lon="7.663">
        <ele>430</ele>
        <time>2017-08-02T11:36:45+02:00</time>
      </trkpt>
      <trkpt lat="48.07196" lon="7.66294">
        <ele>431</ele>
        <time>2017-08-02T11:36:50+02:00</time>
      </trkpt>
      <trkpt lat="48.07188" lon="7.66285">
        <ele>432</ele>
        <time>2017-08-02T11:36:55+02:00</time>
      </trkpt>
      <trkpt lat="48.07179" lon="7.66283">
        <ele>432</ele>
        <time>2017-08-02T11:37:00+02:00</time>
      </trkpt>
      <trkpt lat="48.07172" lon="7.66275">
        <ele>433</ele>
        <time>2017-08-02T11:37:05+02:00</time>
      </trkpt>
      <trkpt lat="48.07163" lon="7.66269">
        <ele>434</ele>
        <time>2017-08-02T11:37:10+02:00</time>
      </trkpt>
      <trkpt lat="48.07155" lon="7.66262">
        <ele>434</ele>
        <time>2017-08-02T11:37:15+02:00</time>
      </trkpt>
      <trkpt lat="48.07146" lon="7.66253">
        <ele>434</ele>
        <time>2017-08-02T11:37:20+02:00</time>
      </trkpt>
      <trkpt lat="48.07138" lon="7.66246">
        <ele>434</ele>
        <time>2017-08-02T11:37:25+02:00</time>
      </trkpt>
      <trkpt lat="48.07131" lon="7.66235">
        <ele>433</ele>
        <time>2017-08-02T11:37:30+02:00</time>
      </trkpt>
      <trkpt lat="48.07125" lon="7.66225">
        <ele>434</ele>
        <time>2017-08-02T11:37:35+02:00</time>
      </trkpt>
      <trkpt lat="48.07118" lon="7.66214">
        <ele>434</ele>
        <time>2017-08-02T11:37:40+02:00</time>
      </trkpt>
      <trkpt lat="48.07112" lon="7.66205">
        <ele>435</ele>
        <time>2017-08-02T11:37:45+02:00</time>
      </trkpt>
      <trkpt lat="48.07105" lon="7.66196">
        <ele>436</ele>
        <time>2017-08-02T11:37:50+02:00</time>
      </trkpt>
      <trkpt lat="48.07098" lon="7.66186">
        <ele>437</ele>
        <time>2017-08-02T11:37:55+02:00</time>
      </trkpt>
      <trkpt lat="48.07091" lon="7.66176">
        <ele>438</ele>
        <time>2017-08-02T11:38:00+02:00</time>
      </trkpt>
      <trkpt lat="48.07083" lon="7.66168">
        <ele>440</ele>
        <time>2017-08-02T11:38:05+02:00</time>
      </trkpt>
      <trkpt lat="48.07075" lon="7.66159">
        <ele>440</ele>
        <time>2017-08-02T11:38:10+02:00</time>
      </trkpt>
      <trkpt lat="48.07066" lon="7.66151">
        <ele>439</ele>
        <time>2017-08-02T11:38:15+02:00</time>
      </trkpt>
      <trkpt lat="48.0706" lon="7.66138">
        <ele>439</ele>
        <time>2017-08-02T11:38:20+02:00</time>
      </trkpt>
      <trkpt lat="48.07055" lon="7.66126">
        <ele>439</ele>
        <time>2017-08-02T11:38:25+02:00</time>
      </trkpt>
      <trkpt lat="48.0705" lon="7.66114">
        <ele>439</ele>
        <time>2017-08-02T11:38:30+02:00</time>
      </trkpt>
      <trkpt lat="48.07044" lon="7.66099">
        <ele>440</ele>
        <time>2017-08-02T11:38:35+02:00</time>
      </trkpt>
      <trkpt lat="48.07037" lon="7.6609">
        <ele>440</ele>
        <time>2017-08-02T11:38:40+02:00</time>
      </trkpt>
      <trkpt lat="48.07031" lon="7.66079">
        <ele>441</ele>
        <time>2017-08-02T11:38:45+02:00</time>
      </trkpt>
      <trkpt lat="48.07025" lon="7.66067">
        <ele>443</ele>
        <time>2017-08-02T11:38:50+02:00</time>
      </trkpt>
      <trkpt lat="48.07022" lon="7.66055">
        <ele>444</ele>
        <time>2017-08-02T11:38:55+02:00</time>
      </trkpt>
      <trkpt lat="48.07017" lon="7.66042">
        <ele>445</ele>
        <time>2017-08-02T11:39:00+02:00</time>
      </trkpt>
      <trkpt lat="48.07013" lon="7.6603">
        <ele>447</ele>
        <time>2017-08-02T11:39:05+02:00</time>
      </trkpt>
      <trkpt lat="48.07006" lon="7.66021">
        <ele>449</ele>
        <time>2017-08-02T11:39:10+02:00</time>
      </trkpt>
      <trkpt lat="48.07002" lon="7.66008">
        <ele>451</ele>
        <time>2017-08-02T11:39:15+02:00</time>
      </trkpt>
      <trkpt lat="48.06997" lon="7.65997">
        <ele>452</ele>
        <time>2017-08-02T11:39:20+02:00</time>
      </trkpt>
      <trkpt lat="48.06987" lon="7.6599">
        <ele>452</ele>
        <time>2017-08-02T11:39:25+02:00</time>
      </trkpt>
      <trkpt lat="48.0698" lon="7.65982">
        <ele>452</ele>
        <time>2017-08-02T11:39:30+02:00</time>
      </trkpt>
      <trkpt lat="48.06972" lon="7.65975">
        <ele>452</ele>
        <time>2017-08-02T11:39:35+02:00</time>
      </trkpt>
      <trkpt lat="48.06963" lon="7.65972">
        <ele>453</ele>
        <time>2017-08-02T11:39:40+02:00</time>
      </trkpt>
      <trkpt lat="48.06954" lon="7.65964">
        <ele>453</ele>
        <time>2017-08-02T11:39:45+02:00</time>
      </trkpt>
      <trkpt lat="48.06947" lon="7.65955">
        <ele>454</ele>
        <time>2017-08-02T11:39:50+02:00</time>
      </trkpt>
      <trkpt lat="48.06941" lon="7.65944">
        <ele>454</ele>
        <time>2017-08-02T11:39:55+02:00</time>
      </trkpt>
      <trkpt lat="48.06931" lon="7.65943">
        <ele>455</ele>
        <time>2017-08-02T11:40:00+02:00</time>
      </trkpt>
      <trkpt lat="48.06923" lon="7.65935">
        <ele>456</ele>
        <time>2017-08-02T11:40:05+02:00</time>
      </trkpt>
      <trkpt lat="48.06914" lon="7.65932">
        <ele>457</ele>
        <time>2017-08-02T11:40:10+02:00</time>
      </trkpt>
      <trkpt lat="48.06905" lon="7.65927">
        <ele>457</ele>
        <time>2017-08-02T11:40:15+02:00</time>
      </trkpt>
      <trkpt lat="48.06895" lon="7.65922">
        <ele>457</ele>
        <time>2017-08-02T11:40:20+02:00</time>
      </trkpt>
      <trkpt lat="48.06886" lon="7.65918">
        <ele>457</ele>
        <time>2017-08-02T11:40:25+02:00</time>
      </trkpt>
      <trkpt lat="48.06878" lon="7.6591">
        <ele>457</ele>
        <time>2017-08-02T11:40:30+02:00</time>
      </trkpt>
      <trkpt lat="48.06871" lon="7.65901">
        <ele>456</ele>
        <time>2017-08-02T11:40:35+02:00</time>
      </trkpt>
      <trkpt lat="48.06862" lon="7.65897">
        <ele>456</ele>
        <time>2017-08-02T11:40:40+02:00</time>
      </trkpt>
      <trkpt lat="48.06854" lon="7.65889">
        <ele>456</ele>
        <time>2017-08-02T11:40:45+02:00</time>
      </trkpt>
      <trkpt lat="48.06846" lon="7.65881">
        <ele>457</ele>
        <time>2017-08-02T11:40:50+02:00</time>
      </trkpt>
      <trkpt lat="48.06839" lon="7.65872">
        <ele>457</ele>
        <time>2017-08-02T11:40:55+02:00</time>
      </trkpt>
      <trkpt lat="48.0683" lon="7.6586">
        <ele>458</ele>
        <time>2017-08-02T11:41:00+02:00</time>
      </trkpt>
      <trkpt lat="48.06823" lon="7.65852">
        <ele>457</ele>
        <time>2017-08-02T11:41:05+02:00</time>
      </trkpt>
      <trkpt lat="48.06816" lon="7.65843">
        <ele>457</ele>
        <time>2017-08-02T11:41:10+02:00</time>
      </trkpt>
      <trkpt lat="48.06809" lon="7.65833">
        <ele>457</ele>
        <time>2017-08-02T11:41:15+02:00</time>
      </trkpt>
      <trkpt lat="48.06801" lon="7.65826">
        <ele>457</ele>
        <time>2017-08-02T11:41:20+02:00</time>
      </trkpt>
      <trkpt lat="48.06796" lon="7.65815">
        <ele>456</ele>
        <time>2017-08-02T11:41:25+02:00</time>
      </trkpt>
      <trkpt lat="48.06789" lon="7.65806">
        <ele>456</ele>
        <time>2017-08-02T11:41:30+02:00</time>
      </trkpt>
      <trkpt lat="48.06782" lon="7.65796">
        <ele>456</ele>
        <time>2017-08-02T11:41:35+02:00</time>
      </trkpt>
      <trkpt lat="48.06778" lon="7.65783">
        <ele>456</ele>
        <time>2017-08-02T11:41:40+02:00</time>
      </trkpt>
      <trkpt lat="48.06775" lon="7.6577">
        <ele>456</ele>
        <time>2017-08-02T11:41:45+02:00</time>
      </trkpt>
      <trkpt lat="48.06776" lon="7.65756">
        <ele>455</ele>
        <time>2017-08-02T11:41:50+02:00</time>
      </trkpt>
      <trkpt lat="48.06775" lon="7.65742">
        <ele>456</ele>
        <time>2017-08-02T11:41:55+02:00</time>
      </trkpt>
      <trkpt lat="48.06772" lon="7.65728">
        <ele>456</ele>
        <time>2017-08-02T11:42:00+02:00</time>
      </trkpt>
      <trkpt lat="48.06775" lon="7.65715">
        <ele>457</ele>
        <time>2017-08-02T11:42:05+02:00</time>
      </trkpt>
      <trkpt lat="48.06781" lon="7.65703">
        <ele>457</ele>
        <time>2017-08-02T11:42:10+02:00</time>
      </trkpt>
      <trkpt lat="48.06777" lon="7.65689">
        <ele>458</ele>
        <time>2017-08-02T11:42:15+02:00</time>
      </trkpt>
      <trkpt lat="48.06775" lon="7.65676">
        <ele>459</ele>
        <time>2017-08-02T11:42:20+02:00</time>
      </trkpt>
      <trkpt lat="48.06774" lon="7.65662">
        <ele>459</ele>
        <time>2017-08-02T11:42:25+02:00</time>
      </trkpt>
      <trkpt lat="48.06772" lon="7.65648">
        <ele>460</ele>
        <time>2017-08-02T11:42:30+02:00</time>
      </trkpt>
      <trkpt lat="48.06772" lon="7.65634">
        <ele>460</ele>
        <time>2017-08-02T11:42:35+02:00</time>
      </trkpt>
      <trkpt lat="48.06768" lon="7.65621">
        <ele>460</ele>
        <time>2017-08-02T11:42:40+02:00</time>
      </trkpt>
      <trkpt lat="48.06767" lon="7.65606">
        <ele>461</ele>
        <time>2017-08-02T11:42:45+02:00</time>
      </trkpt>
      <trkpt lat="48.06762" lon="7.65593">
        <ele>461</ele>
        <time>2017-08-02T11:42:50+02:00</time>
      </trkpt>
      <trkpt lat="48.06759" lon="7.65579">
        <ele>462</ele>
        <time>2017-08-02T11:42:55+02:00</time>
      </trkpt>
      <trkpt lat="48.06753" lon="7.65567">
        <ele>463</ele>
        <time>2017-08-02T11:43:00+02:00</time>
      </trkpt>
      <trkpt lat="48.06747" lon="7.65555">
        <ele>464</ele>
        <time>2017-08-02T11:43:05+02:00</time>
      </trkpt>
      <trkpt lat="48.06743" lon="7.6554">
        <ele>464</ele>
        <time>2017-08-02T11:43:10+02:00</time>
      </trkpt>
      <trkpt lat="48.06738" lon="7.65527">
        <ele>464</ele>
        <time>2017-08-02T11:43:15+02:00</time>
      </trkpt>
      <trkpt lat="48.0673" lon="7.6552">
        <ele>464</ele>
        <time>2017-08-02T11:43:20+02:00</time>
      </trkpt>
      <trkpt lat="48.06725" lon="7.65509">
        <ele>465</ele>
        <time>2017-08-02T11:43:25+02:00</time>
      </trkpt>
      <trkpt lat="48.06717" lon="7.65498">
        <ele>465</ele>
        <time>2017-08-02T11:43:30+02:00</time>
      </trkpt>
      <trkpt lat="48.06708" lon="7.65496">
        <ele>465</ele>
        <time>2017-08-02T11:43:35+02:00</time>
      </trkpt>
      <trkpt lat="48.06699" lon="7.65495">
        <ele>465</ele>
        <time>2017-08-02T11:43:40+02:00</time>
      </trkpt>
      <trkpt lat="48.06689" lon="7.65495">
        <ele>464</ele>
        <time>2017-08-02T11:43:45+02:00</time>
      </trkpt>
      <trkpt lat="48.0668" lon="7.65494">
        <ele>464</ele>
        <time>2017-08-02T11:43:50+02:00</time>
      </trkpt>
      <trkpt lat="48.06669" lon="7.65495">
        <ele>464</ele>
        <time>2017-08-02T11:43:55+02:00</time>
      </trkpt>
      <trkpt lat="48.0666" lon="7.65494">
        <ele>464</ele>
        <time>2017-08-02T11:44:00+02:00</time>
      </trkpt>
      <trkpt lat="48.06651" lon="7.65492">
        <ele>463</ele>
        <time>2017-08-02T11:44:05+02:00</time>
      </trkpt>
      <trkpt lat="48.0664" lon="7.65496">
        <ele>463</ele>
        <time>2017-08-02T11:44:10+02:00</time>
      </trkpt>
      <trkpt lat="48.06631" lon="7.65497">
        <ele>463</ele>
        <time>2017-08-02T11:44:15+02:00</time>
      </trkpt>
      <trkpt lat="48.06621" lon="7.65497">
        <ele>463</ele>
        <time>2017-08-02T11:44:20+02:00</time>
      </trkpt>
      <trkpt lat="48.06612" lon="7.65497">
        <ele>463</ele>
        <time>2017-08-02T11:44:25+02:00</time>
      </trkpt>
      <trkpt lat="48.06602" lon="7.65497">
        <ele>463</ele>
        <time>2017-08-02T11:44:30+02:00</time>
      </trkpt>
      <trkpt lat="48.06593" lon="7.65499">
        <ele>463</ele>
        <time>2017-08-02T11:44:35+02:00</time>
      </trkpt>
      <trkpt lat="48.06585" lon="7.65492">
        <ele>463</ele>
        <time>2017-08-02T11:44:40+02:00</time>
      </trkpt>
      <trkpt lat="48.06575" lon="7.65491">
        <ele>462</ele>
        <time>2017-08-02T11:44:45+02:00</time>
      </trkpt>
      <trkpt lat="48.06564" lon="7.65488">
        <ele>462</ele>
        <time>2017-08-02T11:44:50+02:00</time>
      </trkpt>
      <trkpt lat="48.06554" lon="7.65488">
        <ele>462</ele>
        <time>2017-08-02T11:44:55+02:00</time>
      </trkpt>
      <trkpt lat="48.06545" lon="7.6549">
        <ele>462</ele>
        <time>2017-08-02T11:45:00+02:00</time>
      </trkpt>
      <trkpt lat="48.06535" lon="7.65492">
        <ele>462</ele>
        <time>2017-08-02T11:45:05+02:00</time>
      </trkpt>
      <trkpt lat="48.06525" lon="7.65486">
        <ele>462</ele>
        <time>2017-08-02T11:45:10+02:00</time>
      </trkpt>
      <trkpt lat="48.06516" lon="7.65481">
        <ele>462</ele>
        <time>2017-08-02T11:45:15+02:00</time>
      </trkpt>
      <trkpt lat="48.06507" lon="7.65477">
        <ele>462</ele>
        <time>2017-08-02T11:45:20+02:00</time>
      </trkpt>
      <trkpt lat="48.06497" lon="7.65476">
        <ele>462</ele>
        <time>2017-08-02T11:45:25+02:00</time>
      </trkpt>
      <trkpt lat="48.06489" lon="7.65471">
        <ele>462</ele>
        <time>2017-08-02T11:45:30+02:00</time>
      </trkpt>
      <trkpt lat="48.0648" lon="7.65465">
        <ele>462</ele>
        <time>2017-08-02T11:45:35+02:00</time>
      </trkpt>
      <trkpt lat="48.06471" lon="7.6546">
        <ele>462</ele>
        <time>2017-08-02T11:45:40+02:00</time>
      </trkpt>
      <trkpt lat="48.06461" lon="7.65463">
        <ele>462</ele>
        <time>2017-08-02T11:45:45+02:00</time>
      </trkpt>
      <trkpt lat="48.06452" lon="7.65464">
        <ele>462</ele>
        <time>2017-08-02T11:45:50+02:00</time>
      </trkpt>
      <trkpt lat="48.06443" lon="7.65468">
        <ele>462</ele>
        <time>2017-08-02T11:45:55+02:00</time>
      </trkpt>
      <trkpt lat="48.06435" lon="7.65475">
        <ele>462</ele>
        <time>2017-08-02T11:46:00+02:00</time>
      </trkpt>
      <trkpt lat="48.06426" lon="7.65477">
        <ele>462</ele>
        <time>2017-08-02T11:46:05+02:00</time>
      </trkpt>
      <trkpt lat="48.06417" lon="7.6548">
        <ele>463</ele>
        <time>2017-08-02T11:46:10+02:00</time>
      </trkpt>
      <trkpt lat="48.06408" lon="7.65486">
        <ele>462</ele>
        <time>2017-08-02T11:46:15+02:00</time>
      </trkpt>
      <trkpt lat="48.06398" lon="7.65487">
        <ele>461</ele>
        <time>2017-08-02T11:46:20+02:00</time>
      </trkpt>
      <trkpt lat="48.0639" lon="7.65491">
        <ele>461</ele>
        <time>2017-08-02T11:46:25+02:00</time>
      </trkpt>
      <trkpt lat="48.06381" lon="7.65492">
        <ele>460</ele>
        <time>2017-08-02T11:46:30+02:00</time>
      </trkpt>
      <trkpt lat="48.06371" lon="7.65493">
        <ele>460</ele>
        <time>2017-08-02T11:46:35+02:00</time>
      </trkpt>
      <trkpt lat="48.06362" lon="7.65496">
        <ele>459</ele>
        <time>2017-08-02T11:46:40+02:00</time>
      </trkpt>
      <trkpt lat="48.06352" lon="7.65497">
        <ele>459</ele>
        <time>2017-08-02T11:46:45+02:00</time>
      </trkpt>
      <trkpt lat="48.06343" lon="7.65492">
        <ele>458</ele>
        <time>2017-08-02T11:46:50+02:00</time>
      </trkpt>
      <trkpt lat="48.06334" lon="7.65492">
        <ele>457</ele>
        <time>2017-08-02T11:46:55+02:00</time>
      </trkpt>
      <trkpt lat="48.06324" lon="7.65492">
        <ele>457</ele>
        <time>2017-08-02T11:47:00+02:00</time>
      </trkpt>
      <trkpt lat="48.06315" lon="7.65489">
        <ele>456</ele>
        <time>2017-08-02T11:47:05+02:00</time>
      </trkpt>
      <trkpt lat="48.06305" lon="7.65489">
        <ele>456</ele>
        <time>2017-08-02T11:47:10+02:00</time>
      </trkpt>
      <trkpt lat="48.06297" lon="7.65484">
        <ele>455</ele>
        <time>2017-08-02T11:47:15+02:00</time>
      </trkpt>
      <trkpt lat="48.06287" lon="7.65481">
        <ele>455</ele>
        <time>2017-08-02T11:47:20+02:00</time>
      </trkpt>
      <trkpt lat="48.06278" lon="7.65476">
        <ele>454</ele>
        <time>2017-08-02T11:47:25+02:00</time>
      </trkpt>
      <trkpt lat="48.06269" lon="7.65471">
        <ele>453</ele>
        <time>2017-08-02T11:47:30+02:00</time>
      </trkpt>
      <trkpt lat="48.0626" lon="7.6547">
        <ele>453</ele>
        <time>2017-08-02T11:47:35+02:00</time>
      </trkpt>
      <trkpt lat="48.0625" lon="7.65474">
        <ele>453</ele>
        <time>2017-08-02T11:47:40+02:00</time>
      </trkpt>
      <trkpt lat="48.06241" lon="7.65473">
        <ele>452</ele>
        <time>2017-08-02T11:47:45+02:00</time>
      </trkpt>
      <trkpt lat="48.06232" lon="7.65469">
        <ele>450</ele>
        <time>2017-08-02T11:47:50+02:00</time>
      </trkpt>
      <trkpt lat="48.06223" lon="7.65465">
        <ele>449</ele>
        <time>2017-08-02T11:47:55+02:00</time>
      </trkpt>
      <trkpt lat="48.06214" lon="7.65459">
        <ele>447</ele>
        <time>2017-08-02T11:48:00+02:00</time>
      </trkpt>
      <trkpt lat="48.06202" lon="7.65461">
        <ele>446</ele>
        <time>2017-08-02T11:48:05+02:00</time>
      </trkpt>
      <trkpt lat="48.06193" lon="7.6546">
        <ele>445</ele>
        <time>2017-08-02T11:48:10+02:00</time>
      </trkpt>
      <trkpt lat="48.06183" lon="7.6546">
        <ele>444</ele>
        <time>2017-08-02T11:48:15+02:00</time>
      </trkpt>
      <trkpt lat="48.06173" lon="7.65458">
        <ele>442</ele>
        <time>2017-08-02T11:48:20+02:00</time>
      </trkpt>
      <trkpt lat="48.06163" lon="7.65456">
        <ele>441</ele>
        <time>2017-08-02T11:48:25+02:00</time>
      </trkpt>
      <trkpt lat="48.06154" lon="7.65456">
        <ele>441</ele>
        <time>2017-08-02T11:48:30+02:00</time>
      </trkpt>
      <trkpt lat="48.06145" lon="7.65457">
        <ele>440</ele>
        <time>2017-08-02T11:48:35+02:00</time>
      </trkpt>
      <trkpt lat="48.06133" lon="7.6546">
        <ele>440</ele>
        <time>2017-08-02T11:48:40+02:00</time>
      </trkpt>
      <trkpt lat="48.06124" lon="7.65461">
        <ele>440</ele>
        <time>2017-08-02T11:48:45+02:00</time>
      </trkpt>
      <trkpt lat="48.06113" lon="7.65462">
        <ele>439</ele>
        <time>2017-08-02T11:48:50+02:00</time>
      </trkpt>
      <trkpt lat="48.06104" lon="7.65465">
        <ele>439</ele>
        <time>2017-08-02T11:48:55+02:00</time>
      </trkpt>
      <trkpt lat="48.06095" lon="7.65472">
        <ele>439</ele>
        <time>2017-08-02T11:49:00+02:00</time>
      </trkpt>
      <trkpt lat="48.06086" lon="7.65477">
        <ele>439</ele>
        <time>2017-08-02T11:49:05+02:00</time>
      </trkpt>
      <trkpt lat="48.06076" lon="7.65476">
        <ele>438</ele>
        <time>2017-08-02T11:49:10+02:00</time>
      </trkpt>
      <trkpt lat="48.06067" lon="7.65475">
        <ele>436</ele>
        <time>2017-08-02T11:49:15+02:00</time>
      </trkpt>
      <trkpt lat="48.06057" lon="7.65472">
        <ele>435</ele>
        <time>2017-08-02T11:49:20+02:00</time>
      </trkpt>
      <trkpt lat="48.06048" lon="7.65472">
        <ele>434</ele>
        <time>2017-08-02T11:49:25+02:00</time>
      </trkpt>
      <trkpt lat="48.06039" lon="7.65475">
        <ele>433</ele>
        <time>2017-08-02T11:49:30+02:00</time>
      </trkpt>
      <trkpt lat="48.0603" lon="7.65475">
        <ele>432</ele>
        <time>2017-08-02T11:49:35+02:00</time>
      </trkpt>
      <trkpt lat="48.0602" lon="7.65474">
        <ele>431</ele>
        <time>2017-08-02T11:49:40+02:00</time>
      </trkpt>
      <trkpt lat="48.06011" lon="7.65478">
        <ele>430</ele>
        <time>2017-08-02T11:49:45+02:00</time>
      </trkpt>
      <trkpt lat="48.06002" lon="7.65482">
        <ele>429</ele>
        <time>2017-08-02T11:49:50+02:00</time>
      </trkpt>
      <trkpt lat="48.05994" lon="7.6549">
        <ele>427</ele>
        <time>2017-08-02T11:49:55+02:00</time>
      </trkpt>
      <trkpt lat="48.05987" lon="7.65499">
        <ele>426</ele>
        <time>2017-08-02T11:50:00+02:00</time>
      </trkpt>
      <trkpt lat="48.05978" lon="7.65503">
        <ele>424</ele>
        <time>2017-08-02T11:50:05+02:00</time>
      </trkpt>
      <trkpt lat="48.05969" lon="7.65505">
        <ele>423</ele>
        <time>2017-08-02T11:50:10+02:00</time>
      </trkpt>
      <trkpt lat="48.0596" lon="7.6551">
        <ele>420</ele>
        <time>2017-08-02T11:50:15+02:00</time>
      </trkpt>
      <trkpt lat="48.05951" lon="7.65515">
        <ele>419</ele>
        <time>2017-08-02T11:50:20+02:00</time>
      </trkpt>
      <trkpt lat="48.05941" lon="7.65515">
        <ele>417</ele>
        <time>2017-08-02T11:50:25+02:00</time>
      </trkpt>
      <trkpt lat="48.05931" lon="7.65514">
        <ele>415</ele>
        <time>2017-08-02T11:50:30+02:00</time>
      </trkpt>
      <trkpt lat="48.05922" lon="7.65515">
        <ele>414</ele>
        <time>2017-08-02T11:50:35+02:00</time>
      </trkpt>
      <trkpt lat="48.05912" lon="7.65515">
        <ele>412</ele>
        <time>2017-08-02T11:50:40+02:00</time>
      </trkpt>
      <trkpt lat="48.05902" lon="7.65511">
        <ele>410</ele>
        <time>2017-08-02T11:50:45+02:00</time>
      </trkpt>
      <trkpt lat="48.05893" lon="7.65511">
        <ele>407</ele>
        <time>2017-08-02T11:50:50+02:00</time>
      </trkpt>
      <trkpt lat="48.05884" lon="7.65508">
        <ele>405</ele>
        <time>2017-08-02T11:50:55+02:00</time>
      </trkpt>
      <trkpt lat="48.05875" lon="7.65509">
        <ele>403</ele>
        <time>2017-08-02T11:51:00+02:00</time>
      </trkpt>
      <trkpt lat="48.05866" lon="7.65507">
        <ele>401</ele>
        <time>2017-08-02T11:51:05+02:00</time>
      </trkpt>
      <trkpt lat="48.05856" lon="7.65508">
        <ele>399</ele>
        <time>2017-08-02T11:51:10+02:00</time>
      </trkpt>
      <trkpt lat="48.05847" lon="7.65508">
        <ele>396</ele>
        <time>2017-08-02T11:51:15+02:00</time>
      </trkpt>
      <trkpt lat="48.05838" lon="7.65509">
        <ele>394</ele>
        <time>2017-08-02T11:51:20+02:00</time>
      </trkpt>
      <trkpt lat="48.05829" lon="7.65508">
        <ele>392</ele>
        <time>2017-08-02T11:51:25+02:00</time>
      </trkpt>
      <trkpt lat="48.0582" lon="7.65514">
        <ele>391</ele>
        <time>2017-08-02T11:51:30+02:00</time>
      </trkpt>
      <trkpt lat="48.0581" lon="7.65514">
        <ele>389</ele>
        <time>2017-08-02T11:51:35+02:00</time>
      </trkpt>
      <trkpt lat="48.058" lon="7.65518">
        <ele>388</ele>
        <time>2017-08-02T11:51:40+02:00</time>
      </trkpt>
      <trkpt lat="48.05791" lon="7.6552">
        <ele>386</ele>
        <time>2017-08-02T11:51:45+02:00</time>
      </trkpt>
      <trkpt lat="48.05782" lon="7.65521">
        <ele>384</ele>
        <time>2017-08-02T11:51:50+02:00</time>
      </trkpt>
      <trkpt lat="48.05773" lon="7.65527">
        <ele>383</ele>
        <time>2017-08-02T11:51:55+02:00</time>
      </trkpt>
      <trkpt lat="48.05763" lon="7.65534">
        <ele>382</ele>
        <time>2017-08-02T11:52:00+02:00</time>
      </trkpt>
      <trkpt lat="48.05753" lon="7.65536">
        <ele>380</ele>
        <time>2017-08-02T11:52:05+02:00</time>
      </trkpt>
      <trkpt lat="48.05744" lon="7.65537">
        <ele>379</ele>
        <time>2017-08-02T11:52:10+02:00</time>
      </trkpt>
      <trkpt lat="48.05734" lon="7.65539">
        <ele>379</ele>
        <time>2017-08-02T11:52:15+02:00</time>
      </trkpt>
      <trkpt lat="48.05726" lon="7.65534">
        <ele>378</ele>
        <time>2017-08-02T11:52:20+02:00</time>
      </trkpt>
      <trkpt lat="48.05715" lon="7.65532">
        <ele>378</ele>
        <time>2017-08-02T11:52:25+02:00</time>
      </trkpt>
      <trkpt lat="48.05708" lon="7.65541">
        <ele>378</ele>
        <time>2017-08-02T11:52:30+02:00</time>
      </trkpt>
      <trkpt lat="48.05698" lon="7.65541">
        <ele>378</ele>
        <time>2017-08-02T11:52:35+02:00</time>
      </trkpt>
      <trkpt lat="48.05688" lon="7.6554">
        <ele>377</ele>
        <time>2017-08-02T11:52:40+02:00</time>
      </trkpt>
      <trkpt lat="48.05678" lon="7.6554">
        <ele>377</ele>
        <time>2017-08-02T11:52:45+02:00</time>
      </trkpt>
      <trkpt lat="48.05669" lon="7.65547">
        <ele>377</ele>
        <time>2017-08-02T11:52:50+02:00</time>
      </trkpt>
      <trkpt lat="48.05661" lon="7.65549">
        <ele>376</ele>
        <time>2017-08-02T11:52:55+02:00</time>
      </trkpt>
      <trkpt lat="48.0565" lon="7.65551">
        <ele>375</ele>
        <time>2017-08-02T11:53:00+02:00</time>
      </trkpt>
      <trkpt lat="48.05641" lon="7.65556">
        <ele>374</ele>
        <time>2017-08-02T11:53:05+02:00</time>
      </trkpt>
      <trkpt lat="48.05632" lon="7.65559">
        <ele>373</ele>
        <time>2017-08-02T11:53:10+02:00</time>
      </trkpt>
      <trkpt lat="48.05623" lon="7.65553">
        <ele>371</ele>
        <time>2017-08-02T11:53:15+02:00</time>
      </trkpt>
      <trkpt lat="48.05614" lon="7.65555">
        <ele>370</ele>
        <time>2017-08-02T11:53:20+02:00</time>
      </trkpt>
      <trkpt lat="48.05605" lon="7.65553">
        <ele>368</ele>
        <time>2017-08-02T11:53:25+02:00</time>
      </trkpt>
      <trkpt lat="48.05597" lon="7.65545">
        <ele>367</ele>
        <time>2017-08-02T11:53:30+02:00</time>
      </trkpt>
      <trkpt lat="48.05591" lon="7.65536">
        <ele>365</ele>
        <time>2017-08-02T11:53:35+02:00</time>
      </trkpt>
      <trkpt lat="48.05582" lon="7.65536">
        <ele>364</ele>
        <time>2017-08-02T11:53:40+02:00</time>
      </trkpt>
      <trkpt lat="48.05591" lon="7.65536">
        <ele>365</ele>
        <time>2017-08-02T11:53:45+02:00</time>
      </trkpt>
      <trkpt lat="48.05582" lon="7.65535">
        <ele>364</ele>
        <time>2017-08-02T11:53:50+02:00</time>
      </trkpt>
      <trkpt lat="48.05591" lon="7.65538">
        <ele>365</ele>
        <time>2017-08-02T11:53:55+02:00</time>
      </trkpt>
      <trkpt lat="48.05582" lon="7.65544">
        <ele>364</ele>
        <time>2017-08-02T11:54:00+02:00</time>
      </trkpt>
      <trkpt lat="48.05596" lon="7.6555">
        <ele>367</ele>
        <time>2017-08-02T11:54:05+02:00</time>
      </trkpt>
      <trkpt lat="48.05606" lon="7.6556">
        <ele>368</ele>
        <time>2017-08-02T11:54:10+02:00</time>
      </trkpt>
      <trkpt lat="48.05612" lon="7.6557">
        <ele>370</ele>
        <time>2017-08-02T11:54:15+02:00</time>
      </trkpt>
      <trkpt lat="48.05621" lon="7.65574">
        <ele>372</ele>
        <time>2017-08-02T11:54:20+02:00</time>
      </trkpt>
      <trkpt lat="48.0562" lon="7.65588">
        <ele>371</ele>
        <time>2017-08-02T11:54:25+02:00</time>
      </trkpt>
      <trkpt lat="48.05626" lon="7.65599">
        <ele>371</ele>
        <time>2017-08-02T11:54:30+02:00</time>
      </trkpt>
      <trkpt lat="48.05634" lon="7.65606">
        <ele>371</ele>
        <time>2017-08-02T11:54:35+02:00</time>
      </trkpt>
      <trkpt lat="48.05642" lon="7.65614">
        <ele>372</ele>
        <time>2017-08-02T11:54:40+02:00</time>
      </trkpt>
      <trkpt lat="48.0565" lon="7.65622">
        <ele>372</ele>
        <time>2017-08-02T11:54:45+02:00</time>
      </trkpt>
      <trkpt lat="48.05659" lon="7.65621">
        <ele>374</ele>
        <time>2017-08-02T11:54:50+02:00</time>
      </trkpt>
      <trkpt lat="48.05669" lon="7.65619">
        <ele>375</ele>
        <time>2017-08-02T11:54:55+02:00</time>
      </trkpt>
      <trkpt lat="48.05678" lon="7.65615">
        <ele>376</ele>
        <time>2017-08-02T11:55:00+02:00</time>
      </trkpt>
      <trkpt lat="48.05684" lon="7.65603">
        <ele>378</ele>
        <time>2017-08-02T11:55:05+02:00</time>
      </trkpt>
      <trkpt lat="48.05693" lon="7.65596">
        <ele>379</ele>
        <time>2017-08-02T11:55:10+02:00</time>
      </trkpt>
      <trkpt lat="48.057" lon="7.65588">
        <ele>380</ele>
        <time>2017-08-02T11:55:15+02:00</time>
      </trkpt>
      <trkpt lat="48.05709" lon="7.65582">
        <ele>380</ele>
        <time>2017-08-02T11:55:20+02:00</time>
      </trkpt>
      <trkpt lat="48.05716" lon="7.65574">
        <ele>380</ele>
        <time>2017-08-02T11:55:25+02:00</time>
      </trkpt>
      <trkpt lat="48.05726" lon="7.65574">
        <ele>380</ele>
        <time>2017-08-02T11:55:30+02:00</time>
      </trkpt>
      <trkpt lat="48.05735" lon="7.65574">
        <ele>380</ele>
        <time>2017-08-02T11:55:35+02:00</time>
      </trkpt>
      <trkpt lat="48.05745" lon="7.65575">
        <ele>380</ele>
        <time>2017-08-02T11:55:40+02:00</time>
      </trkpt>
      <trkpt lat="48.05755" lon="7.65578">
        <ele>381</ele>
        <time>2017-08-02T11:55:45+02:00</time>
      </trkpt>
      <trkpt lat="48.05763" lon="7.6558">
        <ele>382</ele>
        <time>2017-08-02T11:55:50+02:00</time>
      </trkpt>
      <trkpt lat="48.05772" lon="7.65581">
        <ele>383</ele>
        <time>2017-08-02T11:55:55+02:00</time>
      </trkpt>
      <trkpt lat="48.05782" lon="7.65578">
        <ele>385</ele>
        <time>2017-08-02T11:56:00+02:00</time>
      </trkpt>
      <trkpt lat="48.05792" lon="7.65581">
        <ele>386</ele>
        <time>2017-08-02T11:56:05+02:00</time>
      </trkpt>
      <trkpt lat="48.05801" lon="7.65582">
        <ele>388</ele>
        <time>2017-08-02T11:56:10+02:00</time>
      </trkpt>
      <trkpt lat="48.05811" lon="7.65584">
        <ele>389</ele>
        <time>2017-08-02T11:56:15+02:00</time>
      </trkpt>
      <trkpt lat="48.05819" lon="7.65592">
        <ele>389</ele>
        <time>2017-08-02T11:56:20+02:00</time>
      </trkpt>
      <trkpt lat="48.05828" lon="7.65598">
        <ele>388</ele>
        <time>2017-08-02T11:56:25+02:00</time>
      </trkpt>
      <trkpt lat="48.05837" lon="7.656">
        <ele>390</ele>
        <time>2017-08-02T11:56:30+02:00</time>
      </trkpt>
      <trkpt lat="48.05846" lon="7.65604">
        <ele>391</ele>
        <time>2017-08-02T11:56:35+02:00</time>
      </trkpt>
      <trkpt lat="48.05853" lon="7.65613">
        <ele>390</ele>
        <time>2017-08-02T11:56:40+02:00</time>
      </trkpt>
      <trkpt lat="48.05861" lon="7.6562">
        <ele>390</ele>
        <time>2017-08-02T11:56:45+02:00</time>
      </trkpt>
      <trkpt lat="48.05869" lon="7.65626">
        <ele>391</ele>
        <time>2017-08-02T11:56:50+02:00</time>
      </trkpt>
      <trkpt lat="48.05877" lon="7.65632">
        <ele>391</ele>
        <time>2017-08-02T11:56:55+02:00</time>
      </trkpt>
      <trkpt lat="48.05887" lon="7.65635">
        <ele>393</ele>
        <time>2017-08-02T11:57:00+02:00</time>
      </trkpt>
      <trkpt lat="48.05896" lon="7.6564">
        <ele>394</ele>
        <time>2017-08-02T11:57:05+02:00</time>
      </trkpt>
      <trkpt lat="48.05906" lon="7.65641">
        <ele>396</ele>
        <time>2017-08-02T11:57:10+02:00</time>
      </trkpt>
      <trkpt lat="48.05915" lon="7.65643">
        <ele>398</ele>
        <time>2017-08-02T11:57:15+02:00</time>
      </trkpt>
      <trkpt lat="48.05924" lon="7.65643">
        <ele>398</ele>
        <time>2017-08-02T11:57:20+02:00</time>
      </trkpt>
      <trkpt lat="48.05933" lon="7.65638">
        <ele>400</ele>
        <time>2017-08-02T11:57:25+02:00</time>
      </trkpt>
      <trkpt lat="48.05943" lon="7.65633">
        <ele>401</ele>
        <time>2017-08-02T11:57:30+02:00</time>
      </trkpt>
      <trkpt lat="48.05951" lon="7.65625">
        <ele>403</ele>
        <time>2017-08-02T11:57:35+02:00</time>
      </trkpt>
      <trkpt lat="48.05961" lon="7.65626">
        <ele>403</ele>
        <time>2017-08-02T11:57:40+02:00</time>
      </trkpt>
      <trkpt lat="48.05971" lon="7.65622">
        <ele>404</ele>
        <time>2017-08-02T11:57:45+02:00</time>
      </trkpt>
      <trkpt lat="48.0598" lon="7.65618">
        <ele>406</ele>
        <time>2017-08-02T11:57:50+02:00</time>
      </trkpt>
      <trkpt lat="48.05991" lon="7.65617">
        <ele>407</ele>
        <time>2017-08-02T11:57:55+02:00</time>
      </trkpt>
      <trkpt lat="48.06001" lon="7.65618">
        <ele>407</ele>
        <time>2017-08-02T11:58:00+02:00</time>
      </trkpt>
      <trkpt lat="48.06012" lon="7.65615">
        <ele>407</ele>
        <time>2017-08-02T11:58:05+02:00</time>
      </trkpt>
      <trkpt lat="48.06022" lon="7.65617">
        <ele>407</ele>
        <time>2017-08-02T11:58:10+02:00</time>
      </trkpt>
      <trkpt lat="48.06031" lon="7.65618">
        <ele>407</ele>
        <time>2017-08-02T11:58:15+02:00</time>
      </trkpt>
      <trkpt lat="48.06041" lon="7.65618">
        <ele>408</ele>
        <time>2017-08-02T11:58:20+02:00</time>
      </trkpt>
      <trkpt lat="48.06051" lon="7.65619">
        <ele>407</ele>
        <time>2017-08-02T11:58:25+02:00</time>
      </trkpt>
      <trkpt lat="48.0606" lon="7.65621">
        <ele>407</ele>
        <time>2017-08-02T11:58:30+02:00</time>
      </trkpt>
      <trkpt lat="48.06069" lon="7.65621">
        <ele>407</ele>
        <time>2017-08-02T11:58:35+02:00</time>
      </trkpt>
      <trkpt lat="48.06082" lon="7.65625">
        <ele>407</ele>
        <time>2017-08-02T11:58:40+02:00</time>
      </trkpt>
      <trkpt lat="48.06094" lon="7.65626">
        <ele>407</ele>
        <time>2017-08-02T11:58:45+02:00</time>
      </trkpt>
      <trkpt lat="48.06105" lon="7.65626">
        <ele>409</ele>
        <time>2017-08-02T11:58:50+02:00</time>
      </trkpt>
      <trkpt lat="48.06114" lon="7.65623">
        <ele>410</ele>
        <time>2017-08-02T11:58:55+02:00</time>
      </trkpt>
      <trkpt lat="48.06125" lon="7.65618">
        <ele>413</ele>
        <time>2017-08-02T11:59:00+02:00</time>
      </trkpt>
      <trkpt lat="48.06135" lon="7.65613">
        <ele>415</ele>
        <time>2017-08-02T11:59:05+02:00</time>
      </trkpt>
      <trkpt lat="48.06144" lon="7.6561">
        <ele>417</ele>
        <time>2017-08-02T11:59:10+02:00</time>
      </trkpt>
      <trkpt lat="48.06153" lon="7.65611">
        <ele>418</ele>
        <time>2017-08-02T11:59:15+02:00</time>
      </trkpt>
      <trkpt lat="48.06163" lon="7.65613">
        <ele>418</ele>
        <time>2017-08-02T11:59:20+02:00</time>
      </trkpt>
      <trkpt lat="48.06171" lon="7.65619">
        <ele>418</ele>
        <time>2017-08-02T11:59:25+02:00</time>
      </trkpt>
      <trkpt lat="48.06181" lon="7.65622">
        <ele>418</ele>
        <time>2017-08-02T11:59:30+02:00</time>
      </trkpt>
      <trkpt lat="48.06191" lon="7.65622">
        <ele>419</ele>
        <time>2017-08-02T11:59:35+02:00</time>
      </trkpt>
      <trkpt lat="48.062" lon="7.65627">
        <ele>419</ele>
        <time>2017-08-02T11:59:40+02:00</time>
      </trkpt>
      <trkpt lat="48.06208" lon="7.65633">
        <ele>418</ele>
        <time>2017-08-02T11:59:45+02:00</time>
      </trkpt>
      <trkpt lat="48.06217" lon="7.65641">
        <ele>417</ele>
        <time>2017-08-02T11:59:50+02:00</time>
      </trkpt>
      <trkpt lat="48.06225" lon="7.65649">
        <ele>416</ele>
        <time>2017-08-02T11:59:55+02:00</time>
      </trkpt>
      <trkpt lat="48.06234" lon="7.65653">
        <ele>415</ele>
        <time>2017-08-02T12:00:00+02:00</time>
      </trkpt>
      <trkpt lat="48.06243" lon="7.65658">
        <ele>415</ele>
        <time>2017-08-02T12:00:05+02:00</time>
      </trkpt>
      <trkpt lat="48.06253" lon="7.6566">
        <ele>415</ele>
        <time>2017-08-02T12:00:10+02:00</time>
      </trkpt>
      <trkpt lat="48.06261" lon="7.65666">
        <ele>415</ele>
        <time>2017-08-02T12:00:15+02:00</time>
      </trkpt>
      <trkpt lat="48.0627" lon="7.65667">
        <ele>415</ele>
        <time>2017-08-02T12:00:20+02:00</time>
      </trkpt>
      <trkpt lat="48.0628" lon="7.65669">
        <ele>416</ele>
        <time>2017-08-02T12:00:25+02:00</time>
      </trkpt>
      <trkpt lat="48.0629" lon="7.6567">
        <ele>417</ele>
        <time>2017-08-02T12:00:30+02:00</time>
      </trkpt>
      <trkpt lat="48.0629" lon="7.6567">
        <ele>417</ele>
        <time>2017-08-02T12:00:35+02:00</time>
      </trkpt>
      <trkpt lat="48.0629" lon="7.6567">
        <ele>417</ele>
        <time>2017-08-02T12:00:40+02:00</time>
      </trkpt>
      <trkpt lat="48.06333" lon="7.65653">
        <ele>427</ele>
        <time>2017-08-02T12:00:45+02:00</time>
      </trkpt>
      <trkpt lat="48.06344" lon="7.65657">
        <ele>426</ele>
        <time>2017-08-02T12:00:50+02:00</time>
      </trkpt>
      <trkpt lat="48.06442" lon="7.65692">
        <ele>425</ele>
        <time>2017-08-02T12:00:55+02:00</time>
      </trkpt>
      <trkpt lat="48.06456" lon="7.65687">
        <ele>427</ele>
        <time>2017-08-02T12:01:00+02:00</time>
      </trkpt>
      <trkpt lat="48.06464" lon="7.65679">
        <ele>429</ele>
        <time>2017-08-02T12:01:05+02:00</time>
      </trkpt>
      <trkpt lat="48.06493" lon="7.65662">
        <ele>434</ele>
        <time>2017-08-02T12:01:10+02:00</time>
      </trkpt>
      <trkpt lat="48.06505" lon="7.65662">
        <ele>434</ele>
        <time>2017-08-02T12:01:15+02:00</time>
      </trkpt>
      <trkpt lat="48.06556" lon="7.65666">
        <ele>436</ele>
        <time>2017-08-02T12:01:20+02:00</time>
      </trkpt>
      <trkpt lat="48.06585" lon="7.65662">
        <ele>438</ele>
        <time>2017-08-02T12:01:25+02:00</time>
      </trkpt>
      <trkpt lat="48.06608" lon="7.65653">
        <ele>442</ele>
        <time>2017-08-02T12:01:30+02:00</time>
      </trkpt>
      <trkpt lat="48.06625" lon="7.65657">
        <ele>443</ele>
        <time>2017-08-02T12:01:35+02:00</time>
      </trkpt>
      <trkpt lat="48.06642" lon="7.6567">
        <ele>443</ele>
        <time>2017-08-02T12:01:40+02:00</time>
      </trkpt>
      <trkpt lat="48.0666" lon="7.65692">
        <ele>442</ele>
        <time>2017-08-02T12:01:45+02:00</time>
      </trkpt>
      <trkpt lat="48.06682" lon="7.65765">
        <ele>441</ele>
        <time>2017-08-02T12:01:50+02:00</time>
      </trkpt>
      <trkpt lat="48.06682" lon="7.6585">
        <ele>439</ele>
        <time>2017-08-02T12:01:55+02:00</time>
      </trkpt>
      <trkpt lat="48.06685" lon="7.65868">
        <ele>438</ele>
        <time>2017-08-02T12:02:00+02:00</time>
      </trkpt>
      <trkpt lat="48.06694" lon="7.65885">
        <ele>438</ele>
        <time>2017-08-02T12:02:05+02:00</time>
      </trkpt>
      <trkpt lat="48.06708" lon="7.65898">
        <ele>440</ele>
        <time>2017-08-02T12:02:10+02:00</time>
      </trkpt>
      <trkpt lat="48.06768" lon="7.65919">
        <ele>448</ele>
        <time>2017-08-02T12:02:15+02:00</time>
      </trkpt>
      <trkpt lat="48.06774" lon="7.65932">
        <ele>446</ele>
        <time>2017-08-02T12:02:20+02:00</time>
      </trkpt>
      <trkpt lat="48.0678" lon="7.65945">
        <ele>446</ele>
        <time>2017-08-02T12:02:25+02:00</time>
      </trkpt>
      <trkpt lat="48.0678" lon="7.65962">
        <ele>443</ele>
        <time>2017-08-02T12:02:30+02:00</time>
      </trkpt>
      <trkpt lat="48.06757" lon="7.66147">
        <ele>425</ele>
        <time>2017-08-02T12:02:35+02:00</time>
      </trkpt>
      <trkpt lat="48.06757" lon="7.66168">
        <ele>425</ele>
        <time>2017-08-02T12:02:40+02:00</time>
      </trkpt>
      <trkpt lat="48.06768" lon="7.66185">
        <ele>423</ele>
        <time>2017-08-02T12:02:45+02:00</time>
      </trkpt>
      <trkpt lat="48.0678" lon="7.66177">
        <ele>423</ele>
        <time>2017-08-02T12:02:50+02:00</time>
      </trkpt>
      <trkpt lat="48.06789" lon="7.66168">
        <ele>424</ele>
        <time>2017-08-02T12:02:55+02:00</time>
      </trkpt>
      <trkpt lat="48.06826" lon="7.66091">
        <ele>434</ele>
        <time>2017-08-02T12:03:00+02:00</time>
      </trkpt>
      <trkpt lat="48.06855" lon="7.66082">
        <ele>438</ele>
        <time>2017-08-02T12:03:05+02:00</time>
      </trkpt>
      <trkpt lat="48.06889" lon="7.66112">
        <ele>435</ele>
        <time>2017-08-02T12:03:10+02:00</time>
      </trkpt>
      <trkpt lat="48.06949" lon="7.66117">
        <ele>438</ele>
        <time>2017-08-02T12:03:15+02:00</time>
      </trkpt>
      <trkpt lat="48.06958" lon="7.66125">
        <ele>438</ele>
        <time>2017-08-02T12:03:20+02:00</time>
      </trkpt>
      <trkpt lat="48.06966" lon="7.66142">
        <ele>437</ele>
        <time>2017-08-02T12:03:25+02:00</time>
      </trkpt>
      <trkpt lat="48.06984" lon="7.66211">
        <ele>428</ele>
        <time>2017-08-02T12:03:30+02:00</time>
      </trkpt>
      <trkpt lat="48.07052" lon="7.66258">
        <ele>428</ele>
        <time>2017-08-02T12:03:35+02:00</time>
      </trkpt>
      <trkpt lat="48.07061" lon="7.66348">
        <ele>416</ele>
        <time>2017-08-02T12:03:40+02:00</time>
      </trkpt>
      <trkpt lat="48.0707" lon="7.6637">
        <ele>414</ele>
        <time>2017-08-02T12:03:45+02:00</time>
      </trkpt>
      <trkpt lat="48.07084" lon="7.66374">
        <ele>416</ele>
        <time>2017-08-02T12:03:50+02:00</time>
      </trkpt>
      <trkpt lat="48.07136" lon="7.66383">
        <ele>419</ele>
        <time>2017-08-02T12:03:55+02:00</time>
      </trkpt>
      <trkpt lat="48.0717" lon="7.664">
        <ele>419</ele>
        <time>2017-08-02T12:04:00+02:00</time>
      </trkpt>
      <trkpt lat="48.0721" lon="7.66426">
        <ele>418</ele>
        <time>2017-08-02T12:04:05+02:00</time>
      </trkpt>
      <trkpt lat="48.07247" lon="7.66456">
        <ele>416</ele>
        <time>2017-08-02T12:04:10+02:00</time>
      </trkpt>
      <trkpt lat="48.07293" lon="7.66494">
        <ele>418</ele>
        <time>2017-08-02T12:04:15+02:00</time>
      </trkpt>
      <trkpt lat="48.07316" lon="7.66529">
        <ele>416</ele>
        <time>2017-08-02T12:04:20+02:00</time>
      </trkpt>
      <trkpt lat="48.07348" lon="7.66584">
        <ele>410</ele>
        <time>2017-08-02T12:04:25+02:00</time>
      </trkpt>
      <trkpt lat="48.07371" lon="7.66649">
        <ele>406</ele>
        <time>2017-08-02T12:04:30+02:00</time>
      </trkpt>
      <trkpt lat="48.07365" lon="7.66692">
        <ele>404</ele>
        <time>2017-08-02T12:04:35+02:00</time>
      </trkpt>
      <trkpt lat="48.07345" lon="7.66726">
        <ele>402</ele>
        <time>2017-08-02T12:04:40+02:00</time>
      </trkpt>
      <trkpt lat="48.07313" lon="7.66743">
        <ele>400</ele>
        <time>2017-08-02T12:04:45+02:00</time>
      </trkpt>
      <trkpt lat="48.07279" lon="7.66739">
        <ele>399</ele>
        <time>2017-08-02T12:04:50+02:00</time>
      </trkpt>
      <trkpt lat="48.07233" lon="7.6676">
        <ele>399</ele>
        <time>2017-08-02T12:04:55+02:00</time>
      </trkpt>
      <trkpt lat="48.07219" lon="7.66851">
        <ele>400</ele>
        <time>2017-08-02T12:05:00+02:00</time>
      </trkpt>
      <trkpt lat="48.07219" lon="7.66851">
        <ele>400</ele>
        <time>2017-08-02T12:05:05+02:00</time>
      </trkpt>
      <trkpt lat="48.07209" lon="7.66851">
        <ele>400</ele>
        <time>2017-08-02T12:05:10+02:00</time>
      </trkpt>
      <trkpt lat="48.072" lon="7.66849">
        <ele>399</ele>
        <time>2017-08-02T12:05:15+02:00</time>
      </trkpt>
      <trkpt lat="48.0719" lon="7.66847">
        <ele>399</ele>
        <time>2017-08-02T12:05:20+02:00</time>
      </trkpt>
      <trkpt lat="48.0718" lon="7.66847">
        <ele>399</ele>
        <time>2017-08-02T12:05:25+02:00</time>
      </trkpt>
      <trkpt lat="48.07171" lon="7.66847">
        <ele>398</ele>
        <time>2017-08-02T12:05:30+02:00</time>
      </trkpt>
      <trkpt lat="48.07161" lon="7.66848">
        <ele>397</ele>
        <time>2017-08-02T12:05:35+02:00</time>
      </trkpt>
      <trkpt lat="48.07151" lon="7.66853">
        <ele>396</ele>
        <time>2017-08-02T12:05:40+02:00</time>
      </trkpt>
      <trkpt lat="48.07142" lon="7.66859">
        <ele>395</ele>
        <time>2017-08-02T12:05:45+02:00</time>
      </trkpt>
      <trkpt lat="48.07134" lon="7.66865">
        <ele>394</ele>
        <time>2017-08-02T12:05:50+02:00</time>
      </trkpt>
      <trkpt lat="48.07126" lon="7.66871">
        <ele>393</ele>
        <time>2017-08-02T12:05:55+02:00</time>
      </trkpt>
      <trkpt lat="48.07117" lon="7.66875">
        <ele>392</ele>
        <time>2017-08-02T12:06:00+02:00</time>
      </trkpt>
      <trkpt lat="48.07108" lon="7.66879">
        <ele>391</ele>
        <time>2017-08-02T12:06:05+02:00</time>
      </trkpt>
      <trkpt lat="48.07098" lon="7.6688">
        <ele>390</ele>
        <time>2017-08-02T12:06:10+02:00</time>
      </trkpt>
      <trkpt lat="48.07089" lon="7.66883">
        <ele>389</ele>
        <time>2017-08-02T12:06:15+02:00</time>
      </trkpt>
      <trkpt lat="48.0708" lon="7.66885">
        <ele>389</ele>
        <time>2017-08-02T12:06:20+02:00</time>
      </trkpt>
      <trkpt lat="48.07071" lon="7.66884">
        <ele>389</ele>
        <time>2017-08-02T12:06:25+02:00</time>
      </trkpt>
      <trkpt lat="48.07062" lon="7.66885">
        <ele>388</ele>
        <time>2017-08-02T12:06:30+02:00</time>
      </trkpt>
      <trkpt lat="48.07053" lon="7.66885">
        <ele>388</ele>
        <time>2017-08-02T12:06:35+02:00</time>
      </trkpt>
      <trkpt lat="48.07042" lon="7.66886">
        <ele>387</ele>
        <time>2017-08-02T12:06:40+02:00</time>
      </trkpt>
      <trkpt lat="48.07034" lon="7.66888">
        <ele>387</ele>
        <time>2017-08-02T12:06:45+02:00</time>
      </trkpt>
      <trkpt lat="48.07024" lon="7.66889">
        <ele>386</ele>
        <time>2017-08-02T12:06:50+02:00</time>
      </trkpt>
      <trkpt lat="48.07015" lon="7.66884">
        <ele>386</ele>
        <time>2017-08-02T12:06:55+02:00</time>
      </trkpt>
      <trkpt lat="48.07007" lon="7.66879">
        <ele>386</ele>
        <time>2017-08-02T12:07:00+02:00</time>
      </trkpt>
      <trkpt lat="48.06998" lon="7.66872">
        <ele>385</ele>
        <time>2017-08-02T12:07:05+02:00</time>
      </trkpt>
      <trkpt lat="48.0699" lon="7.66861">
        <ele>385</ele>
        <time>2017-08-02T12:07:10+02:00</time>
      </trkpt>
      <trkpt lat="48.06983" lon="7.66853">
        <ele>384</ele>
        <time>2017-08-02T12:07:15+02:00</time>
      </trkpt>
      <trkpt lat="48.06975" lon="7.66841">
        <ele>383</ele>
        <time>2017-08-02T12:07:20+02:00</time>
      </trkpt>
      <trkpt lat="48.06967" lon="7.66833">
        <ele>383</ele>
        <time>2017-08-02T12:07:25+02:00</time>
      </trkpt>
      <trkpt lat="48.0696" lon="7.66824">
        <ele>381</ele>
        <time>2017-08-02T12:07:30+02:00</time>
      </trkpt>
      <trkpt lat="48.06955" lon="7.66811">
        <ele>380</ele>
        <time>2017-08-02T12:07:35+02:00</time>
      </trkpt>
      <trkpt lat="48.06947" lon="7.66803">
        <ele>378</ele>
        <time>2017-08-02T12:07:40+02:00</time>
      </trkpt>
      <trkpt lat="48.06938" lon="7.66799">
        <ele>377</ele>
        <time>2017-08-02T12:07:45+02:00</time>
      </trkpt>
      <trkpt lat="48.06929" lon="7.66794">
        <ele>376</ele>
        <time>2017-08-02T12:07:50+02:00</time>
      </trkpt>
      <trkpt lat="48.0692" lon="7.66792">
        <ele>374</ele>
        <time>2017-08-02T12:07:55+02:00</time>
      </trkpt>
      <trkpt lat="48.06911" lon="7.66792">
        <ele>373</ele>
        <time>2017-08-02T12:08:00+02:00</time>
      </trkpt>
      <trkpt lat="48.06901" lon="7.66791">
        <ele>370</ele>
        <time>2017-08-02T12:08:05+02:00</time>
      </trkpt>
      <trkpt lat="48.06892" lon="7.66789">
        <ele>368</ele>
        <time>2017-08-02T12:08:10+02:00</time>
      </trkpt>
      <trkpt lat="48.06883" lon="7.66789">
        <ele>366</ele>
        <time>2017-08-02T12:08:15+02:00</time>
      </trkpt>
      <trkpt lat="48.06874" lon="7.66789">
        <ele>364</ele>
        <time>2017-08-02T12:08:20+02:00</time>
      </trkpt>
      <trkpt lat="48.06865" lon="7.66794">
        <ele>363</ele>
        <time>2017-08-02T12:08:25+02:00</time>
      </trkpt>
      <trkpt lat="48.06859" lon="7.66804">
        <ele>362</ele>
        <time>2017-08-02T12:08:30+02:00</time>
      </trkpt>
      <trkpt lat="48.06855" lon="7.66817">
        <ele>362</ele>
        <time>2017-08-02T12:08:35+02:00</time>
      </trkpt>
      <trkpt lat="48.06853" lon="7.66831">
        <ele>362</ele>
        <time>2017-08-02T12:08:40+02:00</time>
      </trkpt>
      <trkpt lat="48.0685" lon="7.66844">
        <ele>361</ele>
        <time>2017-08-02T12:08:45+02:00</time>
      </trkpt>
      <trkpt lat="48.0685" lon="7.66859">
        <ele>361</ele>
        <time>2017-08-02T12:08:50+02:00</time>
      </trkpt>
      <trkpt lat="48.06849" lon="7.66873">
        <ele>361</ele>
        <time>2017-08-02T12:08:55+02:00</time>
      </trkpt>
      <trkpt lat="48.06846" lon="7.66886">
        <ele>360</ele>
        <time>2017-08-02T12:09:00+02:00</time>
      </trkpt>
      <trkpt lat="48.06845" lon="7.669">
        <ele>360</ele>
        <time>2017-08-02T12:09:05+02:00</time>
      </trkpt>
      <trkpt lat="48.06844" lon="7.66916">
        <ele>360</ele>
        <time>2017-08-02T12:09:10+02:00</time>
      </trkpt>
      <trkpt lat="48.06841" lon="7.6693">
        <ele>358</ele>
        <time>2017-08-02T12:09:15+02:00</time>
      </trkpt>
      <trkpt lat="48.06838" lon="7.66943">
        <ele>357</ele>
        <time>2017-08-02T12:09:20+02:00</time>
      </trkpt>
      <trkpt lat="48.06829" lon="7.66947">
        <ele>356</ele>
        <time>2017-08-02T12:09:25+02:00</time>
      </trkpt>
      <trkpt lat="48.06818" lon="7.66948">
        <ele>355</ele>
        <time>2017-08-02T12:09:30+02:00</time>
      </trkpt>
      <trkpt lat="48.06809" lon="7.66948">
        <ele>354</ele>
        <time>2017-08-02T12:09:35+02:00</time>
      </trkpt>
      <trkpt lat="48.06799" lon="7.66948">
        <ele>353</ele>
        <time>2017-08-02T12:09:40+02:00</time>
      </trkpt>
      <trkpt lat="48.0679" lon="7.6695">
        <ele>352</ele>
        <time>2017-08-02T12:09:45+02:00</time>
      </trkpt>
      <trkpt lat="48.06779" lon="7.66952">
        <ele>351</ele>
        <time>2017-08-02T12:09:50+02:00</time>
      </trkpt>
      <trkpt lat="48.06769" lon="7.66953">
        <ele>351</ele>
        <time>2017-08-02T12:09:55+02:00</time>
      </trkpt>
      <trkpt lat="48.06759" lon="7.66955">
        <ele>350</ele>
        <time>2017-08-02T12:10:00+02:00</time>
      </trkpt>
      <trkpt lat="48.06751" lon="7.66961">
        <ele>350</ele>
        <time>2017-08-02T12:10:05+02:00</time>
      </trkpt>
      <trkpt lat="48.06744" lon="7.66971">
        <ele>350</ele>
        <time>2017-08-02T12:10:10+02:00</time>
      </trkpt>
      <trkpt lat="48.06743" lon="7.66985">
        <ele>351</ele>
        <time>2017-08-02T12:10:15+02:00</time>
      </trkpt>
      <trkpt lat="48.06746" lon="7.66998">
        <ele>352</ele>
        <time>2017-08-02T12:10:20+02:00</time>
      </trkpt>
      <trkpt lat="48.0675" lon="7.6701">
        <ele>351</ele>
        <time>2017-08-02T12:10:25+02:00</time>
      </trkpt>
      <trkpt lat="48.06758" lon="7.6702">
        <ele>349</ele>
        <time>2017-08-02T12:10:30+02:00</time>
      </trkpt>
      <trkpt lat="48.06768" lon="7.67024">
        <ele>349</ele>
        <time>2017-08-02T12:10:35+02:00</time>
      </trkpt>
      <trkpt lat="48.06779" lon="7.67027">
        <ele>349</ele>
        <time>2017-08-02T12:10:40+02:00</time>
      </trkpt>
      <trkpt lat="48.06788" lon="7.67029">
        <ele>348</ele>
        <time>2017-08-02T12:10:45+02:00</time>
      </trkpt>
      <trkpt lat="48.06797" lon="7.67035">
        <ele>348</ele>
        <time>2017-08-02T12:10:50+02:00</time>
      </trkpt>
      <trkpt lat="48.06804" lon="7.67043">
        <ele>347</ele>
        <time>2017-08-02T12:10:55+02:00</time>
      </trkpt>
      <trkpt lat="48.06811" lon="7.67053">
        <ele>345</ele>
        <time>2017-08-02T12:11:00+02:00</time>
      </trkpt>
      <trkpt lat="48.06818" lon="7.67064">
        <ele>344</ele>
        <time>2017-08-02T12:11:05+02:00</time>
      </trkpt>
      <trkpt lat="48.06824" lon="7.67074">
        <ele>342</ele>
        <time>2017-08-02T12:11:10+02:00</time>
      </trkpt>
      <trkpt lat="48.06829" lon="7.67086">
        <ele>341</ele>
        <time>2017-08-02T12:11:15+02:00</time>
      </trkpt>
      <trkpt lat="48.06835" lon="7.67097">
        <ele>339</ele>
        <time>2017-08-02T12:11:20+02:00</time>
      </trkpt>
      <trkpt lat="48.06842" lon="7.67106">
        <ele>338</ele>
        <time>2017-08-02T12:11:25+02:00</time>
      </trkpt>
      <trkpt lat="48.0685" lon="7.67112">
        <ele>338</ele>
        <time>2017-08-02T12:11:30+02:00</time>
      </trkpt>
      <trkpt lat="48.0686" lon="7.67118">
        <ele>338</ele>
        <time>2017-08-02T12:11:35+02:00</time>
      </trkpt>
      <trkpt lat="48.06869" lon="7.67123">
        <ele>338</ele>
        <time>2017-08-02T12:11:40+02:00</time>
      </trkpt>
      <trkpt lat="48.06876" lon="7.67132">
        <ele>337</ele>
        <time>2017-08-02T12:11:45+02:00</time>
      </trkpt>
      <trkpt lat="48.06884" lon="7.67141">
        <ele>337</ele>
        <time>2017-08-02T12:11:50+02:00</time>
      </trkpt>
      <trkpt lat="48.06892" lon="7.67149">
        <ele>337</ele>
        <time>2017-08-02T12:11:55+02:00</time>
      </trkpt>
      <trkpt lat="48.069" lon="7.67158">
        <ele>337</ele>
        <time>2017-08-02T12:12:00+02:00</time>
      </trkpt>
      <trkpt lat="48.06906" lon="7.67168">
        <ele>336</ele>
        <time>2017-08-02T12:12:05+02:00</time>
      </trkpt>
      <trkpt lat="48.06911" lon="7.67181">
        <ele>336</ele>
        <time>2017-08-02T12:12:10+02:00</time>
      </trkpt>
      <trkpt lat="48.06914" lon="7.67195">
        <ele>335</ele>
        <time>2017-08-02T12:12:15+02:00</time>
      </trkpt>
      <trkpt lat="48.06915" lon="7.67209">
        <ele>334</ele>
        <time>2017-08-02T12:12:20+02:00</time>
      </trkpt>
      <trkpt lat="48.06915" lon="7.67224">
        <ele>332</ele>
        <time>2017-08-02T12:12:25+02:00</time>
      </trkpt>
      <trkpt lat="48.06918" lon="7.67241">
        <ele>331</ele>
        <time>2017-08-02T12:12:30+02:00</time>
      </trkpt>
      <trkpt lat="48.06921" lon="7.67255">
        <ele>330</ele>
        <time>2017-08-02T12:12:35+02:00</time>
      </trkpt>
      <trkpt lat="48.06924" lon="7.67268">
        <ele>328</ele>
        <time>2017-08-02T12:12:40+02:00</time>
      </trkpt>
      <trkpt lat="48.06928" lon="7.6728">
        <ele>327</ele>
        <time>2017-08-02T12:12:45+02:00</time>
      </trkpt>
      <trkpt lat="48.06935" lon="7.6729">
        <ele>326</ele>
        <time>2017-08-02T12:12:50+02:00</time>
      </trkpt>
      <trkpt lat="48.06941" lon="7.67301">
        <ele>326</ele>
        <time>2017-08-02T12:12:55+02:00</time>
      </trkpt>
      <trkpt lat="48.0695" lon="7.6731">
        <ele>325</ele>
        <time>2017-08-02T12:13:00+02:00</time>
      </trkpt>
      <trkpt lat="48.06955" lon="7.67322">
        <ele>324</ele>
        <time>2017-08-02T12:13:05+02:00</time>
      </trkpt>
      <trkpt lat="48.0696" lon="7.67336">
        <ele>322</ele>
        <time>2017-08-02T12:13:10+02:00</time>
      </trkpt>
      <trkpt lat="48.06966" lon="7.67347">
        <ele>322</ele>
        <time>2017-08-02T12:13:15+02:00</time>
      </trkpt>
      <trkpt lat="48.06972" lon="7.67358">
        <ele>321</ele>
        <time>2017-08-02T12:13:20+02:00</time>
      </trkpt>
      <trkpt lat="48.06977" lon="7.6737">
        <ele>320</ele>
        <time>2017-08-02T12:13:25+02:00</time>
      </trkpt>
      <trkpt lat="48.06982" lon="7.67383">
        <ele>319</ele>
        <time>2017-08-02T12:13:30+02:00</time>
      </trkpt>
      <trkpt lat="48.06985" lon="7.67397">
        <ele>318</ele>
        <time>2017-08-02T12:13:35+02:00</time>
      </trkpt>
      <trkpt lat="48.06987" lon="7.67413">
        <ele>316</ele>
        <time>2017-08-02T12:13:40+02:00</time>
      </trkpt>
      <trkpt lat="48.06987" lon="7.67427">
        <ele>315</ele>
        <time>2017-08-02T12:13:45+02:00</time>
      </trkpt>
      <trkpt lat="48.06985" lon="7.67442">
        <ele>314</ele>
        <time>2017-08-02T12:13:50+02:00</time>
      </trkpt>
      <trkpt lat="48.06983" lon="7.67456">
        <ele>312</ele>
        <time>2017-08-02T12:13:55+02:00</time>
      </trkpt>
      <trkpt lat="48.0698" lon="7.67471">
        <ele>310</ele>
        <time>2017-08-02T12:14:00+02:00</time>
      </trkpt>
      <trkpt lat="48.06978" lon="7.67484">
        <ele>309</ele>
        <time>2017-08-02T12:14:05+02:00</time>
      </trkpt>
      <trkpt lat="48.06978" lon="7.67498">
        <ele>308</ele>
        <time>2017-08-02T12:14:10+02:00</time>
      </trkpt>
      <trkpt lat="48.06982" lon="7.6751">
        <ele>307</ele>
        <time>2017-08-02T12:14:15+02:00</time>
      </trkpt>
      <trkpt lat="48.06986" lon="7.67522">
        <ele>307</ele>
        <time>2017-08-02T12:14:20+02:00</time>
      </trkpt>
      <trkpt lat="48.06993" lon="7.67532">
        <ele>307</ele>
        <time>2017-08-02T12:14:25+02:00</time>
      </trkpt>
      <trkpt lat="48.07003" lon="7.67542">
        <ele>307</ele>
        <time>2017-08-02T12:14:30+02:00</time>
      </trkpt>
      <trkpt lat="48.07013" lon="7.67544">
        <ele>307</ele>
        <time>2017-08-02T12:14:35+02:00</time>
      </trkpt>
      <trkpt lat="48.07023" lon="7.67546">
        <ele>308</ele>
        <time>2017-08-02T12:14:40+02:00</time>
      </trkpt>
      <trkpt lat="48.07032" lon="7.67546">
        <ele>309</ele>
        <time>2017-08-02T12:14:45+02:00</time>
      </trkpt>
      <trkpt lat="48.07042" lon="7.67543">
        <ele>310</ele>
        <time>2017-08-02T12:14:50+02:00</time>
      </trkpt>
      <trkpt lat="48.0705" lon="7.67541">
        <ele>311</ele>
        <time>2017-08-02T12:14:55+02:00</time>
      </trkpt>
      <trkpt lat="48.0706" lon="7.67539">
        <ele>312</ele>
        <time>2017-08-02T12:15:00+02:00</time>
      </trkpt>
      <trkpt lat="48.0707" lon="7.6754">
        <ele>312</ele>
        <time>2017-08-02T12:15:05+02:00</time>
      </trkpt>
      <trkpt lat="48.0708" lon="7.67546">
        <ele>313</ele>
        <time>2017-08-02T12:15:10+02:00</time>
      </trkpt>
      <trkpt lat="48.07081" lon="7.6756">
        <ele>313</ele>
        <time>2017-08-02T12:15:15+02:00</time>
      </trkpt>
      <trkpt lat="48.07077" lon="7.67573">
        <ele>312</ele>
        <time>2017-08-02T12:15:20+02:00</time>
      </trkpt>
      <trkpt lat="48.07069" lon="7.67584">
        <ele>311</ele>
        <time>2017-08-02T12:15:25+02:00</time>
      </trkpt>
      <trkpt lat="48.07057" lon="7.67584">
        <ele>310</ele>
        <time>2017-08-02T12:15:30+02:00</time>
      </trkpt>
      <trkpt lat="48.07045" lon="7.67584">
        <ele>308</ele>
        <time>2017-08-02T12:15:35+02:00</time>
      </trkpt>
      <trkpt lat="48.07035" lon="7.67581">
        <ele>307</ele>
        <time>2017-08-02T12:15:40+02:00</time>
      </trkpt>
      <trkpt lat="48.07026" lon="7.67577">
        <ele>306</ele>
        <time>2017-08-02T12:15:45+02:00</time>
      </trkpt>
      <trkpt lat="48.07017" lon="7.67574">
        <ele>305</ele>
        <time>2017-08-02T12:15:50+02:00</time>
      </trkpt>
      <trkpt lat="48.07008" lon="7.67574">
        <ele>304</ele>
        <time>2017-08-02T12:15:55+02:00</time>
      </trkpt>
      <trkpt lat="48.06998" lon="7.6757">
        <ele>303</ele>
        <time>2017-08-02T12:16:00+02:00</time>
      </trkpt>
      <trkpt lat="48.06989" lon="7.67567">
        <ele>303</ele>
        <time>2017-08-02T12:16:05+02:00</time>
      </trkpt>
      <trkpt lat="48.06981" lon="7.6756">
        <ele>303</ele>
        <time>2017-08-02T12:16:10+02:00</time>
      </trkpt>
      <trkpt lat="48.06974" lon="7.67552">
        <ele>303</ele>
        <time>2017-08-02T12:16:15+02:00</time>
      </trkpt>
      <trkpt lat="48.06966" lon="7.67541">
        <ele>302</ele>
        <time>2017-08-02T12:16:20+02:00</time>
      </trkpt>
      <trkpt lat="48.06959" lon="7.67531">
        <ele>302</ele>
        <time>2017-08-02T12:16:25+02:00</time>
      </trkpt>
      <trkpt lat="48.06952" lon="7.67519">
        <ele>302</ele>
        <time>2017-08-02T12:16:30+02:00</time>
      </trkpt>
      <trkpt lat="48.06947" lon="7.67507">
        <ele>302</ele>
        <time>2017-08-02T12:16:35+02:00</time>
      </trkpt>
      <trkpt lat="48.0694" lon="7.67498">
        <ele>301</ele>
        <time>2017-08-02T12:16:40+02:00</time>
      </trkpt>
      <trkpt lat="48.06932" lon="7.6749">
        <ele>301</ele>
        <time>2017-08-02T12:16:45+02:00</time>
      </trkpt>
      <trkpt lat="48.06921" lon="7.67482">
        <ele>301</ele>
        <time>2017-08-02T12:16:50+02:00</time>
      </trkpt>
      <trkpt lat="48.06913" lon="7.67476">
        <ele>301</ele>
        <time>2017-08-02T12:16:55+02:00</time>
      </trkpt>
      <trkpt lat="48.06904" lon="7.67472">
        <ele>301</ele>
        <time>2017-08-02T12:17:00+02:00</time>
      </trkpt>
      <trkpt lat="48.06895" lon="7.67466">
        <ele>301</ele>
        <time>2017-08-02T12:17:05+02:00</time>
      </trkpt>
      <trkpt lat="48.06886" lon="7.67463">
        <ele>301</ele>
        <time>2017-08-02T12:17:10+02:00</time>
      </trkpt>
      <trkpt lat="48.06878" lon="7.67458">
        <ele>301</ele>
        <time>2017-08-02T12:17:15+02:00</time>
      </trkpt>
      <trkpt lat="48.06867" lon="7.67451">
        <ele>302</ele>
        <time>2017-08-02T12:17:20+02:00</time>
      </trkpt>
      <trkpt lat="48.06858" lon="7.67449">
        <ele>302</ele>
        <time>2017-08-02T12:17:25+02:00</time>
      </trkpt>
      <trkpt lat="48.06848" lon="7.67445">
        <ele>302</ele>
        <time>2017-08-02T12:17:30+02:00</time>
      </trkpt>
      <trkpt lat="48.06839" lon="7.67446">
        <ele>302</ele>
        <time>2017-08-02T12:17:35+02:00</time>
      </trkpt>
      <trkpt lat="48.0683" lon="7.67448">
        <ele>301</ele>
        <time>2017-08-02T12:17:40+02:00</time>
      </trkpt>
      <trkpt lat="48.06821" lon="7.67452">
        <ele>299</ele>
        <time>2017-08-02T12:17:45+02:00</time>
      </trkpt>
      <trkpt lat="48.06811" lon="7.67457">
        <ele>298</ele>
        <time>2017-08-02T12:17:50+02:00</time>
      </trkpt>
      <trkpt lat="48.06802" lon="7.67462">
        <ele>296</ele>
        <time>2017-08-02T12:17:55+02:00</time>
      </trkpt>
      <trkpt lat="48.06792" lon="7.67459">
        <ele>296</ele>
        <time>2017-08-02T12:18:00+02:00</time>
      </trkpt>
      <trkpt lat="48.06783" lon="7.67464">
        <ele>294</ele>
        <time>2017-08-02T12:18:05+02:00</time>
      </trkpt>
      <trkpt lat="48.06777" lon="7.67477">
        <ele>292</ele>
        <time>2017-08-02T12:18:10+02:00</time>
      </trkpt>
      <trkpt lat="48.06773" lon="7.6749">
        <ele>289</ele>
        <time>2017-08-02T12:18:15+02:00</time>
      </trkpt>
      <trkpt lat="48.06772" lon="7.67505">
        <ele>287</ele>
        <time>2017-08-02T12:18:20+02:00</time>
      </trkpt>
      <trkpt lat="48.0677" lon="7.67519">
        <ele>287</ele>
        <time>2017-08-02T12:18:25+02:00</time>
      </trkpt>
      <trkpt lat="48.06763" lon="7.67529">
        <ele>286</ele>
        <time>2017-08-02T12:18:30+02:00</time>
      </trkpt>
      <trkpt lat="48.06754" lon="7.67526">
        <ele>286</ele>
        <time>2017-08-02T12:18:35+02:00</time>
      </trkpt>
      <trkpt lat="48.06749" lon="7.67517">
        <ele>286</ele>
        <time>2017-08-02T12:18:40+02:00</time>
      </trkpt>
      <trkpt lat="48.06745" lon="7.67506">
        <ele>286</ele>
        <time>2017-08-02T12:18:45+02:00</time>
      </trkpt>
      <trkpt lat="48.06743" lon="7.675">
        <ele>286</ele>
        <time>2017-08-02T12:18:50+02:00</time>
      </trkpt>
      <trkpt lat="48.06739" lon="7.67487">
        <ele>288</ele>
        <time>2017-08-02T12:18:55+02:00</time>
      </trkpt>
    </trkseg>
  </trk>
</gpx>